<?xml version="1.0" encoding="UTF-8" ?>
<gpx version="1.0" xmlns:xsi="http://www.w3.org/2001/XMLSchema-instance"
	xmlns="http://www.topografix.com/GPX/1/0"
	xsi:schemaLocation="http://www.topografix.com/GPX/1/0 http://www.topografix.com/GPX/1/0/gpx.xsd"
	creator="https://www.openrunner.com">	<trk>
						<name>8953792-Circuit amateur n°2</name>
						<trkseg>
					<trkpt lat="44.022460" lon="3.301550">
						<ele>499</ele>
						<time>2019-05-18T12:11:47Z</time>
					</trkpt>
					<trkpt lat="44.022400" lon="3.301960">
						<ele>498</ele>
						<time>2019-05-18T12:11:52Z</time>
					</trkpt>
					<trkpt lat="44.022280" lon="3.302080">
						<ele>497</ele>
						<time>2019-05-18T12:11:55Z</time>
					</trkpt>
					<trkpt lat="44.022200" lon="3.302230">
						<ele>497</ele>
						<time>2019-05-18T12:11:57Z</time>
					</trkpt>
					<trkpt lat="44.022020" lon="3.302880">
						<ele>492</ele>
						<time>2019-05-18T12:12:06Z</time>
					</trkpt>
					<trkpt lat="44.021960" lon="3.302970">
						<ele>491</ele>
						<time>2019-05-18T12:12:08Z</time>
					</trkpt>
					<trkpt lat="44.021920" lon="3.303000">
						<ele>491</ele>
						<time>2019-05-18T12:12:09Z</time>
					</trkpt>
					<trkpt lat="44.021900" lon="3.303270">
						<ele>489</ele>
						<time>2019-05-18T12:12:12Z</time>
					</trkpt>
					<trkpt lat="44.021940" lon="3.303890">
						<ele>488</ele>
						<time>2019-05-18T12:12:20Z</time>
					</trkpt>
					<trkpt lat="44.022040" lon="3.304050">
						<ele>487</ele>
						<time>2019-05-18T12:12:23Z</time>
					</trkpt>
					<trkpt lat="44.022250" lon="3.304340">
						<ele>485</ele>
						<time>2019-05-18T12:12:28Z</time>
					</trkpt>
					<trkpt lat="44.022310" lon="3.304390">
						<ele>485</ele>
						<time>2019-05-18T12:12:29Z</time>
					</trkpt>
					<trkpt lat="44.022380" lon="3.304400">
						<ele>484</ele>
						<time>2019-05-18T12:12:31Z</time>
					</trkpt>
					<trkpt lat="44.022650" lon="3.304360">
						<ele>482</ele>
						<time>2019-05-18T12:12:35Z</time>
					</trkpt>
					<trkpt lat="44.023010" lon="3.304370">
						<ele>480</ele>
						<time>2019-05-18T12:12:42Z</time>
					</trkpt>
					<trkpt lat="44.023120" lon="3.304410">
						<ele>479</ele>
						<time>2019-05-18T12:12:44Z</time>
					</trkpt>
					<trkpt lat="44.023250" lon="3.304550">
						<ele>479</ele>
						<time>2019-05-18T12:12:47Z</time>
					</trkpt>
					<trkpt lat="44.023290" lon="3.304720">
						<ele>479</ele>
						<time>2019-05-18T12:12:49Z</time>
					</trkpt>
					<trkpt lat="44.023290" lon="3.304810">
						<ele>479</ele>
						<time>2019-05-18T12:12:50Z</time>
					</trkpt>
					<trkpt lat="44.023250" lon="3.304990">
						<ele>480</ele>
						<time>2019-05-18T12:12:53Z</time>
					</trkpt>
					<trkpt lat="44.023250" lon="3.304990">
						<ele>480</ele>
						<time>2019-05-18T12:12:53Z</time>
					</trkpt>
					<trkpt lat="44.023090" lon="3.305570">
						<ele>482</ele>
						<time>2019-05-18T12:13:01Z</time>
					</trkpt>
					<trkpt lat="44.022700" lon="3.306290">
						<ele>482</ele>
						<time>2019-05-18T12:13:12Z</time>
					</trkpt>
					<trkpt lat="44.022640" lon="3.306540">
						<ele>483</ele>
						<time>2019-05-18T12:13:15Z</time>
					</trkpt>
					<trkpt lat="44.022580" lon="3.306850">
						<ele>484</ele>
						<time>2019-05-18T12:13:20Z</time>
					</trkpt>
					<trkpt lat="44.022490" lon="3.306990">
						<ele>485</ele>
						<time>2019-05-18T12:13:22Z</time>
					</trkpt>
					<trkpt lat="44.022370" lon="3.307060">
						<ele>485</ele>
						<time>2019-05-18T12:13:24Z</time>
					</trkpt>
					<trkpt lat="44.021950" lon="3.307190">
						<ele>484</ele>
						<time>2019-05-18T12:13:32Z</time>
					</trkpt>
					<trkpt lat="44.021840" lon="3.307250">
						<ele>484</ele>
						<time>2019-05-18T12:13:34Z</time>
					</trkpt>
					<trkpt lat="44.021540" lon="3.307550">
						<ele>485</ele>
						<time>2019-05-18T12:13:41Z</time>
					</trkpt>
					<trkpt lat="44.020070" lon="3.308690">
						<ele>485</ele>
						<time>2019-05-18T12:14:11Z</time>
					</trkpt>
					<trkpt lat="44.019800" lon="3.308830">
						<ele>484</ele>
						<time>2019-05-18T12:14:16Z</time>
					</trkpt>
					<trkpt lat="44.019570" lon="3.308900">
						<ele>484</ele>
						<time>2019-05-18T12:14:20Z</time>
					</trkpt>
					<trkpt lat="44.019260" lon="3.308900">
						<ele>484</ele>
						<time>2019-05-18T12:14:25Z</time>
					</trkpt>
					<trkpt lat="44.018630" lon="3.308850">
						<ele>486</ele>
						<time>2019-05-18T12:14:37Z</time>
					</trkpt>
					<trkpt lat="44.017080" lon="3.308910">
						<ele>494</ele>
						<time>2019-05-18T12:15:04Z</time>
					</trkpt>
					<trkpt lat="44.017080" lon="3.308910">
						<ele>494</ele>
						<time>2019-05-18T12:15:04Z</time>
					</trkpt>
					<trkpt lat="44.016760" lon="3.308940">
						<ele>495</ele>
						<time>2019-05-18T12:15:10Z</time>
					</trkpt>
					<trkpt lat="44.016580" lon="3.309000">
						<ele>496</ele>
						<time>2019-05-18T12:15:13Z</time>
					</trkpt>
					<trkpt lat="44.015990" lon="3.309480">
						<ele>496</ele>
						<time>2019-05-18T12:15:25Z</time>
					</trkpt>
					<trkpt lat="44.015860" lon="3.309540">
						<ele>495</ele>
						<time>2019-05-18T12:15:28Z</time>
					</trkpt>
					<trkpt lat="44.015650" lon="3.309600">
						<ele>495</ele>
						<time>2019-05-18T12:15:32Z</time>
					</trkpt>
					<trkpt lat="44.014290" lon="3.309810">
						<ele>491</ele>
						<time>2019-05-18T12:15:56Z</time>
					</trkpt>
					<trkpt lat="44.013840" lon="3.309870">
						<ele>490</ele>
						<time>2019-05-18T12:16:04Z</time>
					</trkpt>
					<trkpt lat="44.013440" lon="3.309890">
						<ele>488</ele>
						<time>2019-05-18T12:16:11Z</time>
					</trkpt>
					<trkpt lat="44.013140" lon="3.310010">
						<ele>488</ele>
						<time>2019-05-18T12:16:17Z</time>
					</trkpt>
					<trkpt lat="44.013020" lon="3.310130">
						<ele>489</ele>
						<time>2019-05-18T12:16:19Z</time>
					</trkpt>
					<trkpt lat="44.012960" lon="3.310220">
						<ele>490</ele>
						<time>2019-05-18T12:16:21Z</time>
					</trkpt>
					<trkpt lat="44.012480" lon="3.311660">
						<ele>494</ele>
						<time>2019-05-18T12:16:41Z</time>
					</trkpt>
					<trkpt lat="44.012410" lon="3.312020">
						<ele>495</ele>
						<time>2019-05-18T12:16:46Z</time>
					</trkpt>
					<trkpt lat="44.012400" lon="3.312330">
						<ele>496</ele>
						<time>2019-05-18T12:16:50Z</time>
					</trkpt>
					<trkpt lat="44.012500" lon="3.313550">
						<ele>500</ele>
						<time>2019-05-18T12:17:06Z</time>
					</trkpt>
					<trkpt lat="44.012610" lon="3.314590">
						<ele>504</ele>
						<time>2019-05-18T12:17:19Z</time>
					</trkpt>
					<trkpt lat="44.012710" lon="3.315040">
						<ele>507</ele>
						<time>2019-05-18T12:17:25Z</time>
					</trkpt>
					<trkpt lat="44.012870" lon="3.315460">
						<ele>508</ele>
						<time>2019-05-18T12:17:31Z</time>
					</trkpt>
					<trkpt lat="44.013270" lon="3.316240">
						<ele>506</ele>
						<time>2019-05-18T12:17:44Z</time>
					</trkpt>
					<trkpt lat="44.013530" lon="3.316760">
						<ele>504</ele>
						<time>2019-05-18T12:17:52Z</time>
					</trkpt>
					<trkpt lat="44.013760" lon="3.317100">
						<ele>503</ele>
						<time>2019-05-18T12:17:58Z</time>
					</trkpt>
					<trkpt lat="44.013990" lon="3.317350">
						<ele>500</ele>
						<time>2019-05-18T12:18:03Z</time>
					</trkpt>
					<trkpt lat="44.014260" lon="3.317580">
						<ele>497</ele>
						<time>2019-05-18T12:18:08Z</time>
					</trkpt>
					<trkpt lat="44.015100" lon="3.318150">
						<ele>497</ele>
						<time>2019-05-18T12:18:25Z</time>
					</trkpt>
					<trkpt lat="44.015270" lon="3.318300">
						<ele>493</ele>
						<time>2019-05-18T12:18:29Z</time>
					</trkpt>
					<trkpt lat="44.015520" lon="3.318640">
						<ele>492</ele>
						<time>2019-05-18T12:18:35Z</time>
					</trkpt>
					<trkpt lat="44.015850" lon="3.319280">
						<ele>490</ele>
						<time>2019-05-18T12:18:45Z</time>
					</trkpt>
					<trkpt lat="44.016320" lon="3.320020">
						<ele>488</ele>
						<time>2019-05-18T12:18:58Z</time>
					</trkpt>
					<trkpt lat="44.016560" lon="3.320260">
						<ele>488</ele>
						<time>2019-05-18T12:19:03Z</time>
					</trkpt>
					<trkpt lat="44.016720" lon="3.320360">
						<ele>488</ele>
						<time>2019-05-18T12:19:06Z</time>
					</trkpt>
					<trkpt lat="44.017000" lon="3.320480">
						<ele>489</ele>
						<time>2019-05-18T12:19:11Z</time>
					</trkpt>
					<trkpt lat="44.018150" lon="3.320850">
						<ele>490</ele>
						<time>2019-05-18T12:19:32Z</time>
					</trkpt>
					<trkpt lat="44.018580" lon="3.321070">
						<ele>491</ele>
						<time>2019-05-18T12:19:40Z</time>
					</trkpt>
					<trkpt lat="44.018800" lon="3.321300">
						<ele>492</ele>
						<time>2019-05-18T12:19:45Z</time>
					</trkpt>
					<trkpt lat="44.019200" lon="3.321940">
						<ele>492</ele>
						<time>2019-05-18T12:19:56Z</time>
					</trkpt>
					<trkpt lat="44.019330" lon="3.322080">
						<ele>492</ele>
						<time>2019-05-18T12:19:59Z</time>
					</trkpt>
					<trkpt lat="44.019600" lon="3.322240">
						<ele>492</ele>
						<time>2019-05-18T12:20:04Z</time>
					</trkpt>
					<trkpt lat="44.019720" lon="3.322380">
						<ele>492</ele>
						<time>2019-05-18T12:20:07Z</time>
					</trkpt>
					<trkpt lat="44.019880" lon="3.322670">
						<ele>492</ele>
						<time>2019-05-18T12:20:12Z</time>
					</trkpt>
					<trkpt lat="44.020330" lon="3.323890">
						<ele>493</ele>
						<time>2019-05-18T12:20:29Z</time>
					</trkpt>
					<trkpt lat="44.020490" lon="3.324420">
						<ele>494</ele>
						<time>2019-05-18T12:20:37Z</time>
					</trkpt>
					<trkpt lat="44.020600" lon="3.324650">
						<ele>493</ele>
						<time>2019-05-18T12:20:40Z</time>
					</trkpt>
					<trkpt lat="44.020750" lon="3.324880">
						<ele>493</ele>
						<time>2019-05-18T12:20:44Z</time>
					</trkpt>
					<trkpt lat="44.021450" lon="3.325710">
						<ele>494</ele>
						<time>2019-05-18T12:21:00Z</time>
					</trkpt>
					<trkpt lat="44.022350" lon="3.326520">
						<ele>500</ele>
						<time>2019-05-18T12:21:20Z</time>
					</trkpt>
					<trkpt lat="44.022590" lon="3.326770">
						<ele>503</ele>
						<time>2019-05-18T12:21:25Z</time>
					</trkpt>
					<trkpt lat="44.022770" lon="3.327290">
						<ele>505</ele>
						<time>2019-05-18T12:21:32Z</time>
					</trkpt>
					<trkpt lat="44.022940" lon="3.327650">
						<ele>506</ele>
						<time>2019-05-18T12:21:38Z</time>
					</trkpt>
					<trkpt lat="44.023130" lon="3.327930">
						<ele>507</ele>
						<time>2019-05-18T12:21:43Z</time>
					</trkpt>
					<trkpt lat="44.023990" lon="3.328930">
						<ele>510</ele>
						<time>2019-05-18T12:22:03Z</time>
					</trkpt>
					<trkpt lat="44.024310" lon="3.329440">
						<ele>511</ele>
						<time>2019-05-18T12:22:11Z</time>
					</trkpt>
					<trkpt lat="44.024430" lon="3.329680">
						<ele>512</ele>
						<time>2019-05-18T12:22:15Z</time>
					</trkpt>
					<trkpt lat="44.025100" lon="3.331480">
						<ele>515</ele>
						<time>2019-05-18T12:22:41Z</time>
					</trkpt>
					<trkpt lat="44.025180" lon="3.331650">
						<ele>515</ele>
						<time>2019-05-18T12:22:44Z</time>
					</trkpt>
					<trkpt lat="44.025210" lon="3.331780">
						<ele>516</ele>
						<time>2019-05-18T12:22:45Z</time>
					</trkpt>
					<trkpt lat="44.025230" lon="3.331960">
						<ele>518</ele>
						<time>2019-05-18T12:22:48Z</time>
					</trkpt>
					<trkpt lat="44.025170" lon="3.332050">
						<ele>517</ele>
						<time>2019-05-18T12:22:49Z</time>
					</trkpt>
					<trkpt lat="44.025000" lon="3.332130">
						<ele>515</ele>
						<time>2019-05-18T12:22:52Z</time>
					</trkpt>
					<trkpt lat="44.024860" lon="3.332270">
						<ele>513</ele>
						<time>2019-05-18T12:22:55Z</time>
					</trkpt>
					<trkpt lat="44.024790" lon="3.332410">
						<ele>512</ele>
						<time>2019-05-18T12:22:58Z</time>
					</trkpt>
					<trkpt lat="44.024790" lon="3.332410">
						<ele>512</ele>
						<time>2019-05-18T12:22:58Z</time>
					</trkpt>
					<trkpt lat="44.024730" lon="3.332510">
						<ele>511</ele>
						<time>2019-05-18T12:22:59Z</time>
					</trkpt>
					<trkpt lat="44.024640" lon="3.332850">
						<ele>510</ele>
						<time>2019-05-18T12:23:04Z</time>
					</trkpt>
					<trkpt lat="44.024610" lon="3.333040">
						<ele>510</ele>
						<time>2019-05-18T12:23:06Z</time>
					</trkpt>
					<trkpt lat="44.024570" lon="3.333470">
						<ele>510</ele>
						<time>2019-05-18T12:23:12Z</time>
					</trkpt>
					<trkpt lat="44.024610" lon="3.333960">
						<ele>512</ele>
						<time>2019-05-18T12:23:18Z</time>
					</trkpt>
					<trkpt lat="44.024600" lon="3.334280">
						<ele>513</ele>
						<time>2019-05-18T12:23:22Z</time>
					</trkpt>
					<trkpt lat="44.024520" lon="3.334490">
						<ele>512</ele>
						<time>2019-05-18T12:23:25Z</time>
					</trkpt>
					<trkpt lat="44.024250" lon="3.334940">
						<ele>506</ele>
						<time>2019-05-18T12:23:33Z</time>
					</trkpt>
					<trkpt lat="44.024020" lon="3.335470">
						<ele>508</ele>
						<time>2019-05-18T12:23:41Z</time>
					</trkpt>
					<trkpt lat="44.023850" lon="3.335780">
						<ele>509</ele>
						<time>2019-05-18T12:23:46Z</time>
					</trkpt>
					<trkpt lat="44.023720" lon="3.335920">
						<ele>510</ele>
						<time>2019-05-18T12:23:49Z</time>
					</trkpt>
					<trkpt lat="44.023000" lon="3.336460">
						<ele>510</ele>
						<time>2019-05-18T12:24:03Z</time>
					</trkpt>
					<trkpt lat="44.022330" lon="3.336870">
						<ele>508</ele>
						<time>2019-05-18T12:24:16Z</time>
					</trkpt>
					<trkpt lat="44.021780" lon="3.337380">
						<ele>509</ele>
						<time>2019-05-18T12:24:28Z</time>
					</trkpt>
					<trkpt lat="44.021650" lon="3.337620">
						<ele>511</ele>
						<time>2019-05-18T12:24:32Z</time>
					</trkpt>
					<trkpt lat="44.021340" lon="3.338410">
						<ele>518</ele>
						<time>2019-05-18T12:24:43Z</time>
					</trkpt>
					<trkpt lat="44.021010" lon="3.339300">
						<ele>522</ele>
						<time>2019-05-18T12:24:56Z</time>
					</trkpt>
					<trkpt lat="44.020950" lon="3.339610">
						<ele>523</ele>
						<time>2019-05-18T12:25:00Z</time>
					</trkpt>
					<trkpt lat="44.020660" lon="3.340720">
						<ele>526</ele>
						<time>2019-05-18T12:25:15Z</time>
					</trkpt>
					<trkpt lat="44.020630" lon="3.341020">
						<ele>526</ele>
						<time>2019-05-18T12:25:19Z</time>
					</trkpt>
					<trkpt lat="44.020650" lon="3.341330">
						<ele>527</ele>
						<time>2019-05-18T12:25:23Z</time>
					</trkpt>
					<trkpt lat="44.020680" lon="3.341540">
						<ele>527</ele>
						<time>2019-05-18T12:25:26Z</time>
					</trkpt>
					<trkpt lat="44.021010" lon="3.342370">
						<ele>523</ele>
						<time>2019-05-18T12:25:38Z</time>
					</trkpt>
					<trkpt lat="44.021200" lon="3.342740">
						<ele>523</ele>
						<time>2019-05-18T12:25:44Z</time>
					</trkpt>
					<trkpt lat="44.021330" lon="3.343070">
						<ele>519</ele>
						<time>2019-05-18T12:25:49Z</time>
					</trkpt>
					<trkpt lat="44.021470" lon="3.343260">
						<ele>518</ele>
						<time>2019-05-18T12:25:52Z</time>
					</trkpt>
					<trkpt lat="44.021870" lon="3.343580">
						<ele>522</ele>
						<time>2019-05-18T12:26:01Z</time>
					</trkpt>
					<trkpt lat="44.022780" lon="3.344640">
						<ele>525</ele>
						<time>2019-05-18T12:26:22Z</time>
					</trkpt>
					<trkpt lat="44.022860" lon="3.344790">
						<ele>524</ele>
						<time>2019-05-18T12:26:24Z</time>
					</trkpt>
					<trkpt lat="44.022900" lon="3.344960">
						<ele>521</ele>
						<time>2019-05-18T12:26:26Z</time>
					</trkpt>
					<trkpt lat="44.022890" lon="3.345460">
						<ele>515</ele>
						<time>2019-05-18T12:26:33Z</time>
					</trkpt>
					<trkpt lat="44.022910" lon="3.345670">
						<ele>514</ele>
						<time>2019-05-18T12:26:35Z</time>
					</trkpt>
					<trkpt lat="44.022960" lon="3.345890">
						<ele>512</ele>
						<time>2019-05-18T12:26:38Z</time>
					</trkpt>
					<trkpt lat="44.023050" lon="3.346150">
						<ele>512</ele>
						<time>2019-05-18T12:26:42Z</time>
					</trkpt>
					<trkpt lat="44.023150" lon="3.346390">
						<ele>512</ele>
						<time>2019-05-18T12:26:46Z</time>
					</trkpt>
					<trkpt lat="44.023880" lon="3.347410">
						<ele>513</ele>
						<time>2019-05-18T12:27:04Z</time>
					</trkpt>
					<trkpt lat="44.024410" lon="3.347950">
						<ele>515</ele>
						<time>2019-05-18T12:27:16Z</time>
					</trkpt>
					<trkpt lat="44.025210" lon="3.348900">
						<ele>518</ele>
						<time>2019-05-18T12:27:34Z</time>
					</trkpt>
					<trkpt lat="44.025630" lon="3.349660">
						<ele>519</ele>
						<time>2019-05-18T12:27:47Z</time>
					</trkpt>
					<trkpt lat="44.025720" lon="3.349780">
						<ele>519</ele>
						<time>2019-05-18T12:27:49Z</time>
					</trkpt>
					<trkpt lat="44.026290" lon="3.350460">
						<ele>523</ele>
						<time>2019-05-18T12:28:02Z</time>
					</trkpt>
					<trkpt lat="44.026350" lon="3.350610">
						<ele>522</ele>
						<time>2019-05-18T12:28:04Z</time>
					</trkpt>
					<trkpt lat="44.026420" lon="3.350640">
						<ele>523</ele>
						<time>2019-05-18T12:28:06Z</time>
					</trkpt>
					<trkpt lat="44.026450" lon="3.350730">
						<ele>522</ele>
						<time>2019-05-18T12:28:07Z</time>
					</trkpt>
					<trkpt lat="44.026470" lon="3.351300">
						<ele>520</ele>
						<time>2019-05-18T12:28:14Z</time>
					</trkpt>
					<trkpt lat="44.026430" lon="3.351360">
						<ele>520</ele>
						<time>2019-05-18T12:28:15Z</time>
					</trkpt>
					<trkpt lat="44.026340" lon="3.351590">
						<ele>519</ele>
						<time>2019-05-18T12:28:19Z</time>
					</trkpt>
					<trkpt lat="44.026390" lon="3.351830">
						<ele>518</ele>
						<time>2019-05-18T12:28:22Z</time>
					</trkpt>
					<trkpt lat="44.026110" lon="3.352810">
						<ele>515</ele>
						<time>2019-05-18T12:28:35Z</time>
					</trkpt>
					<trkpt lat="44.026040" lon="3.353090">
						<ele>515</ele>
						<time>2019-05-18T12:28:39Z</time>
					</trkpt>
					<trkpt lat="44.025910" lon="3.353820">
						<ele>513</ele>
						<time>2019-05-18T12:28:49Z</time>
					</trkpt>
					<trkpt lat="44.025830" lon="3.354310">
						<ele>511</ele>
						<time>2019-05-18T12:28:55Z</time>
					</trkpt>
					<trkpt lat="44.025740" lon="3.354560">
						<ele>512</ele>
						<time>2019-05-18T12:28:59Z</time>
					</trkpt>
					<trkpt lat="44.025720" lon="3.354970">
						<ele>513</ele>
						<time>2019-05-18T12:29:04Z</time>
					</trkpt>
					<trkpt lat="44.025660" lon="3.355550">
						<ele>514</ele>
						<time>2019-05-18T12:29:12Z</time>
					</trkpt>
					<trkpt lat="44.025710" lon="3.355790">
						<ele>514</ele>
						<time>2019-05-18T12:29:15Z</time>
					</trkpt>
					<trkpt lat="44.025940" lon="3.356370">
						<ele>516</ele>
						<time>2019-05-18T12:29:23Z</time>
					</trkpt>
					<trkpt lat="44.025990" lon="3.356540">
						<ele>517</ele>
						<time>2019-05-18T12:29:26Z</time>
					</trkpt>
					<trkpt lat="44.026010" lon="3.356760">
						<ele>518</ele>
						<time>2019-05-18T12:29:28Z</time>
					</trkpt>
					<trkpt lat="44.026000" lon="3.356820">
						<ele>518</ele>
						<time>2019-05-18T12:29:29Z</time>
					</trkpt>
					<trkpt lat="44.025900" lon="3.357120">
						<ele>517</ele>
						<time>2019-05-18T12:29:33Z</time>
					</trkpt>
					<trkpt lat="44.025500" lon="3.358080">
						<ele>519</ele>
						<time>2019-05-18T12:29:48Z</time>
					</trkpt>
					<trkpt lat="44.025100" lon="3.359340">
						<ele>522</ele>
						<time>2019-05-18T12:30:05Z</time>
					</trkpt>
					<trkpt lat="44.025050" lon="3.359550">
						<ele>522</ele>
						<time>2019-05-18T12:30:08Z</time>
					</trkpt>
					<trkpt lat="44.025010" lon="3.359620">
						<ele>522</ele>
						<time>2019-05-18T12:30:09Z</time>
					</trkpt>
					<trkpt lat="44.025000" lon="3.359680">
						<ele>522</ele>
						<time>2019-05-18T12:30:10Z</time>
					</trkpt>
					<trkpt lat="44.024900" lon="3.359850">
						<ele>521</ele>
						<time>2019-05-18T12:30:13Z</time>
					</trkpt>
					<trkpt lat="44.024360" lon="3.359790">
						<ele>515</ele>
						<time>2019-05-18T12:30:23Z</time>
					</trkpt>
					<trkpt lat="44.024030" lon="3.359700">
						<ele>515</ele>
						<time>2019-05-18T12:30:29Z</time>
					</trkpt>
					<trkpt lat="44.023830" lon="3.359680">
						<ele>517</ele>
						<time>2019-05-18T12:30:32Z</time>
					</trkpt>
					<trkpt lat="44.023830" lon="3.359680">
						<ele>517</ele>
						<time>2019-05-18T12:30:32Z</time>
					</trkpt>
					<trkpt lat="44.024030" lon="3.359700">
						<ele>515</ele>
						<time>2019-05-18T12:30:36Z</time>
					</trkpt>
					<trkpt lat="44.024360" lon="3.359790">
						<ele>515</ele>
						<time>2019-05-18T12:30:42Z</time>
					</trkpt>
					<trkpt lat="44.024900" lon="3.359850">
						<ele>521</ele>
						<time>2019-05-18T12:30:51Z</time>
					</trkpt>
					<trkpt lat="44.024960" lon="3.359850">
						<ele>522</ele>
						<time>2019-05-18T12:30:52Z</time>
					</trkpt>
					<trkpt lat="44.025060" lon="3.359770">
						<ele>523</ele>
						<time>2019-05-18T12:30:54Z</time>
					</trkpt>
					<trkpt lat="44.025110" lon="3.359780">
						<ele>524</ele>
						<time>2019-05-18T12:30:55Z</time>
					</trkpt>
					<trkpt lat="44.025150" lon="3.359750">
						<ele>524</ele>
						<time>2019-05-18T12:30:56Z</time>
					</trkpt>
					<trkpt lat="44.025250" lon="3.359800">
						<ele>526</ele>
						<time>2019-05-18T12:30:58Z</time>
					</trkpt>
					<trkpt lat="44.025340" lon="3.359880">
						<ele>528</ele>
						<time>2019-05-18T12:31:00Z</time>
					</trkpt>
					<trkpt lat="44.025310" lon="3.360740">
						<ele>534</ele>
						<time>2019-05-18T12:31:11Z</time>
					</trkpt>
					<trkpt lat="44.025260" lon="3.361220">
						<ele>537</ele>
						<time>2019-05-18T12:31:17Z</time>
					</trkpt>
					<trkpt lat="44.025150" lon="3.361770">
						<ele>540</ele>
						<time>2019-05-18T12:31:24Z</time>
					</trkpt>
					<trkpt lat="44.024990" lon="3.362410">
						<ele>545</ele>
						<time>2019-05-18T12:31:33Z</time>
					</trkpt>
					<trkpt lat="44.024990" lon="3.362410">
						<ele>545</ele>
						<time>2019-05-18T12:31:33Z</time>
					</trkpt>
					<trkpt lat="44.024960" lon="3.362550">
						<ele>546</ele>
						<time>2019-05-18T12:31:35Z</time>
					</trkpt>
					<trkpt lat="44.024920" lon="3.362990">
						<ele>550</ele>
						<time>2019-05-18T12:31:41Z</time>
					</trkpt>
					<trkpt lat="44.024960" lon="3.363980">
						<ele>552</ele>
						<time>2019-05-18T12:31:53Z</time>
					</trkpt>
					<trkpt lat="44.025060" lon="3.364320">
						<ele>555</ele>
						<time>2019-05-18T12:31:58Z</time>
					</trkpt>
					<trkpt lat="44.025100" lon="3.364500">
						<ele>556</ele>
						<time>2019-05-18T12:32:00Z</time>
					</trkpt>
					<trkpt lat="44.025200" lon="3.365480">
						<ele>556</ele>
						<time>2019-05-18T12:32:13Z</time>
					</trkpt>
					<trkpt lat="44.025370" lon="3.365890">
						<ele>565</ele>
						<time>2019-05-18T12:32:19Z</time>
					</trkpt>
					<trkpt lat="44.025460" lon="3.366240">
						<ele>566</ele>
						<time>2019-05-18T12:32:24Z</time>
					</trkpt>
					<trkpt lat="44.025660" lon="3.366560">
						<ele>572</ele>
						<time>2019-05-18T12:32:29Z</time>
					</trkpt>
					<trkpt lat="44.025700" lon="3.366710">
						<ele>572</ele>
						<time>2019-05-18T12:32:31Z</time>
					</trkpt>
					<trkpt lat="44.025740" lon="3.367060">
						<ele>570</ele>
						<time>2019-05-18T12:32:36Z</time>
					</trkpt>
					<trkpt lat="44.025820" lon="3.367330">
						<ele>571</ele>
						<time>2019-05-18T12:32:40Z</time>
					</trkpt>
					<trkpt lat="44.025840" lon="3.367520">
						<ele>570</ele>
						<time>2019-05-18T12:32:42Z</time>
					</trkpt>
					<trkpt lat="44.025840" lon="3.368010">
						<ele>567</ele>
						<time>2019-05-18T12:32:48Z</time>
					</trkpt>
					<trkpt lat="44.025850" lon="3.368090">
						<ele>567</ele>
						<time>2019-05-18T12:32:49Z</time>
					</trkpt>
					<trkpt lat="44.025900" lon="3.368160">
						<ele>567</ele>
						<time>2019-05-18T12:32:51Z</time>
					</trkpt>
					<trkpt lat="44.025960" lon="3.368160">
						<ele>567</ele>
						<time>2019-05-18T12:32:52Z</time>
					</trkpt>
					<trkpt lat="44.025970" lon="3.368300">
						<ele>566</ele>
						<time>2019-05-18T12:32:54Z</time>
					</trkpt>
					<trkpt lat="44.025960" lon="3.368530">
						<ele>565</ele>
						<time>2019-05-18T12:32:56Z</time>
					</trkpt>
					<trkpt lat="44.025920" lon="3.368660">
						<ele>565</ele>
						<time>2019-05-18T12:32:58Z</time>
					</trkpt>
					<trkpt lat="44.025920" lon="3.368660">
						<ele>565</ele>
						<time>2019-05-18T12:32:58Z</time>
					</trkpt>
					<trkpt lat="44.025960" lon="3.368530">
						<ele>565</ele>
						<time>2019-05-18T12:33:00Z</time>
					</trkpt>
					<trkpt lat="44.025970" lon="3.368300">
						<ele>566</ele>
						<time>2019-05-18T12:33:03Z</time>
					</trkpt>
					<trkpt lat="44.025960" lon="3.368160">
						<ele>567</ele>
						<time>2019-05-18T12:33:05Z</time>
					</trkpt>
					<trkpt lat="44.025980" lon="3.368150">
						<ele>567</ele>
						<time>2019-05-18T12:33:05Z</time>
					</trkpt>
					<trkpt lat="44.025990" lon="3.368120">
						<ele>568</ele>
						<time>2019-05-18T12:33:06Z</time>
					</trkpt>
					<trkpt lat="44.026000" lon="3.368050">
						<ele>568</ele>
						<time>2019-05-18T12:33:07Z</time>
					</trkpt>
					<trkpt lat="44.025820" lon="3.366470">
						<ele>584</ele>
						<time>2019-05-18T12:33:27Z</time>
					</trkpt>
					<trkpt lat="44.025740" lon="3.365490">
						<ele>593</ele>
						<time>2019-05-18T12:33:40Z</time>
					</trkpt>
					<trkpt lat="44.025710" lon="3.365040">
						<ele>593</ele>
						<time>2019-05-18T12:33:45Z</time>
					</trkpt>
					<trkpt lat="44.025730" lon="3.364800">
						<ele>593</ele>
						<time>2019-05-18T12:33:49Z</time>
					</trkpt>
					<trkpt lat="44.025790" lon="3.364520">
						<ele>595</ele>
						<time>2019-05-18T12:33:52Z</time>
					</trkpt>
					<trkpt lat="44.025910" lon="3.364230">
						<ele>597</ele>
						<time>2019-05-18T12:33:57Z</time>
					</trkpt>
					<trkpt lat="44.026070" lon="3.363950">
						<ele>600</ele>
						<time>2019-05-18T12:34:01Z</time>
					</trkpt>
					<trkpt lat="44.026580" lon="3.363460">
						<ele>613</ele>
						<time>2019-05-18T12:34:12Z</time>
					</trkpt>
					<trkpt lat="44.026720" lon="3.363300">
						<ele>617</ele>
						<time>2019-05-18T12:34:15Z</time>
					</trkpt>
					<trkpt lat="44.026970" lon="3.362880">
						<ele>620</ele>
						<time>2019-05-18T12:34:22Z</time>
					</trkpt>
					<trkpt lat="44.027130" lon="3.362680">
						<ele>623</ele>
						<time>2019-05-18T12:34:26Z</time>
					</trkpt>
					<trkpt lat="44.027300" lon="3.362510">
						<ele>626</ele>
						<time>2019-05-18T12:34:30Z</time>
					</trkpt>
					<trkpt lat="44.027470" lon="3.362360">
						<ele>628</ele>
						<time>2019-05-18T12:34:33Z</time>
					</trkpt>
					<trkpt lat="44.027750" lon="3.362210">
						<ele>630</ele>
						<time>2019-05-18T12:34:39Z</time>
					</trkpt>
					<trkpt lat="44.028060" lon="3.362090">
						<ele>632</ele>
						<time>2019-05-18T12:34:45Z</time>
					</trkpt>
					<trkpt lat="44.028310" lon="3.362040">
						<ele>635</ele>
						<time>2019-05-18T12:34:49Z</time>
					</trkpt>
					<trkpt lat="44.028450" lon="3.362060">
						<ele>635</ele>
						<time>2019-05-18T12:34:52Z</time>
					</trkpt>
					<trkpt lat="44.029170" lon="3.362550">
						<ele>640</ele>
						<time>2019-05-18T12:35:06Z</time>
					</trkpt>
					<trkpt lat="44.029770" lon="3.363140">
						<ele>650</ele>
						<time>2019-05-18T12:35:19Z</time>
					</trkpt>
					<trkpt lat="44.030000" lon="3.363180">
						<ele>649</ele>
						<time>2019-05-18T12:35:23Z</time>
					</trkpt>
					<trkpt lat="44.030590" lon="3.362920">
						<ele>649</ele>
						<time>2019-05-18T12:35:34Z</time>
					</trkpt>
					<trkpt lat="44.030800" lon="3.362870">
						<ele>650</ele>
						<time>2019-05-18T12:35:38Z</time>
					</trkpt>
					<trkpt lat="44.031070" lon="3.362940">
						<ele>652</ele>
						<time>2019-05-18T12:35:43Z</time>
					</trkpt>
					<trkpt lat="44.031390" lon="3.363160">
						<ele>657</ele>
						<time>2019-05-18T12:35:49Z</time>
					</trkpt>
					<trkpt lat="44.031830" lon="3.363400">
						<ele>662</ele>
						<time>2019-05-18T12:35:57Z</time>
					</trkpt>
					<trkpt lat="44.032160" lon="3.363490">
						<ele>665</ele>
						<time>2019-05-18T12:36:03Z</time>
					</trkpt>
					<trkpt lat="44.032520" lon="3.363530">
						<ele>667</ele>
						<time>2019-05-18T12:36:10Z</time>
					</trkpt>
					<trkpt lat="44.033150" lon="3.363710">
						<ele>675</ele>
						<time>2019-05-18T12:36:21Z</time>
					</trkpt>
					<trkpt lat="44.033540" lon="3.363720">
						<ele>677</ele>
						<time>2019-05-18T12:36:28Z</time>
					</trkpt>
					<trkpt lat="44.034090" lon="3.364050">
						<ele>689</ele>
						<time>2019-05-18T12:36:39Z</time>
					</trkpt>
					<trkpt lat="44.034300" lon="3.364150">
						<ele>692</ele>
						<time>2019-05-18T12:36:43Z</time>
					</trkpt>
					<trkpt lat="44.034600" lon="3.364140">
						<ele>694</ele>
						<time>2019-05-18T12:36:48Z</time>
					</trkpt>
					<trkpt lat="44.035110" lon="3.364010">
						<ele>694</ele>
						<time>2019-05-18T12:36:57Z</time>
					</trkpt>
					<trkpt lat="44.035280" lon="3.364020">
						<ele>695</ele>
						<time>2019-05-18T12:37:00Z</time>
					</trkpt>
					<trkpt lat="44.035520" lon="3.364100">
						<ele>697</ele>
						<time>2019-05-18T12:37:05Z</time>
					</trkpt>
					<trkpt lat="44.036470" lon="3.364750">
						<ele>706</ele>
						<time>2019-05-18T12:37:24Z</time>
					</trkpt>
					<trkpt lat="44.036790" lon="3.364870">
						<ele>706</ele>
						<time>2019-05-18T12:37:30Z</time>
					</trkpt>
					<trkpt lat="44.036860" lon="3.364970">
						<ele>708</ele>
						<time>2019-05-18T12:37:31Z</time>
					</trkpt>
					<trkpt lat="44.036860" lon="3.365070">
						<ele>710</ele>
						<time>2019-05-18T12:37:33Z</time>
					</trkpt>
					<trkpt lat="44.036750" lon="3.365110">
						<ele>712</ele>
						<time>2019-05-18T12:37:35Z</time>
					</trkpt>
					<trkpt lat="44.036570" lon="3.365050">
						<ele>712</ele>
						<time>2019-05-18T12:37:38Z</time>
					</trkpt>
					<trkpt lat="44.036360" lon="3.365000">
						<ele>712</ele>
						<time>2019-05-18T12:37:42Z</time>
					</trkpt>
					<trkpt lat="44.036050" lon="3.364980">
						<ele>713</ele>
						<time>2019-05-18T12:37:47Z</time>
					</trkpt>
					<trkpt lat="44.035560" lon="3.364810">
						<ele>711</ele>
						<time>2019-05-18T12:37:56Z</time>
					</trkpt>
					<trkpt lat="44.035400" lon="3.364830">
						<ele>711</ele>
						<time>2019-05-18T12:37:59Z</time>
					</trkpt>
					<trkpt lat="44.035310" lon="3.364900">
						<ele>712</ele>
						<time>2019-05-18T12:38:01Z</time>
					</trkpt>
					<trkpt lat="44.035280" lon="3.364930">
						<ele>712</ele>
						<time>2019-05-18T12:38:02Z</time>
					</trkpt>
					<trkpt lat="44.035250" lon="3.365080">
						<ele>714</ele>
						<time>2019-05-18T12:38:04Z</time>
					</trkpt>
					<trkpt lat="44.035270" lon="3.365280">
						<ele>714</ele>
						<time>2019-05-18T12:38:06Z</time>
					</trkpt>
					<trkpt lat="44.035340" lon="3.365470">
						<ele>715</ele>
						<time>2019-05-18T12:38:09Z</time>
					</trkpt>
					<trkpt lat="44.035420" lon="3.365610">
						<ele>717</ele>
						<time>2019-05-18T12:38:11Z</time>
					</trkpt>
					<trkpt lat="44.035950" lon="3.365750">
						<ele>724</ele>
						<time>2019-05-18T12:38:21Z</time>
					</trkpt>
					<trkpt lat="44.036380" lon="3.365970">
						<ele>729</ele>
						<time>2019-05-18T12:38:29Z</time>
					</trkpt>
					<trkpt lat="44.036610" lon="3.366050">
						<ele>733</ele>
						<time>2019-05-18T12:38:33Z</time>
					</trkpt>
					<trkpt lat="44.036790" lon="3.366050">
						<ele>733</ele>
						<time>2019-05-18T12:38:36Z</time>
					</trkpt>
					<trkpt lat="44.036860" lon="3.366070">
						<ele>733</ele>
						<time>2019-05-18T12:38:38Z</time>
					</trkpt>
					<trkpt lat="44.036890" lon="3.366170">
						<ele>735</ele>
						<time>2019-05-18T12:38:39Z</time>
					</trkpt>
					<trkpt lat="44.036810" lon="3.366270">
						<ele>737</ele>
						<time>2019-05-18T12:38:41Z</time>
					</trkpt>
					<trkpt lat="44.036680" lon="3.366230">
						<ele>736</ele>
						<time>2019-05-18T12:38:43Z</time>
					</trkpt>
					<trkpt lat="44.036540" lon="3.366250">
						<ele>735</ele>
						<time>2019-05-18T12:38:46Z</time>
					</trkpt>
					<trkpt lat="44.036460" lon="3.366350">
						<ele>734</ele>
						<time>2019-05-18T12:38:48Z</time>
					</trkpt>
					<trkpt lat="44.036430" lon="3.366520">
						<ele>736</ele>
						<time>2019-05-18T12:38:50Z</time>
					</trkpt>
					<trkpt lat="44.036460" lon="3.366900">
						<ele>740</ele>
						<time>2019-05-18T12:38:55Z</time>
					</trkpt>
					<trkpt lat="44.036440" lon="3.367470">
						<ele>745</ele>
						<time>2019-05-18T12:39:02Z</time>
					</trkpt>
					<trkpt lat="44.036350" lon="3.368100">
						<ele>748</ele>
						<time>2019-05-18T12:39:10Z</time>
					</trkpt>
					<trkpt lat="44.036320" lon="3.368660">
						<ele>750</ele>
						<time>2019-05-18T12:39:18Z</time>
					</trkpt>
					<trkpt lat="44.036440" lon="3.369280">
						<ele>754</ele>
						<time>2019-05-18T12:39:26Z</time>
					</trkpt>
					<trkpt lat="44.036610" lon="3.369790">
						<ele>758</ele>
						<time>2019-05-18T12:39:33Z</time>
					</trkpt>
					<trkpt lat="44.036830" lon="3.370240">
						<ele>758</ele>
						<time>2019-05-18T12:39:40Z</time>
					</trkpt>
					<trkpt lat="44.037110" lon="3.370510">
						<ele>758</ele>
						<time>2019-05-18T12:39:46Z</time>
					</trkpt>
					<trkpt lat="44.037410" lon="3.370590">
						<ele>762</ele>
						<time>2019-05-18T12:39:51Z</time>
					</trkpt>
					<trkpt lat="44.037710" lon="3.370500">
						<ele>766</ele>
						<time>2019-05-18T12:39:57Z</time>
					</trkpt>
					<trkpt lat="44.038260" lon="3.370210">
						<ele>775</ele>
						<time>2019-05-18T12:40:07Z</time>
					</trkpt>
					<trkpt lat="44.038690" lon="3.369900">
						<ele>778</ele>
						<time>2019-05-18T12:40:16Z</time>
					</trkpt>
					<trkpt lat="44.038980" lon="3.369750">
						<ele>778</ele>
						<time>2019-05-18T12:40:21Z</time>
					</trkpt>
					<trkpt lat="44.039320" lon="3.369670">
						<ele>778</ele>
						<time>2019-05-18T12:40:28Z</time>
					</trkpt>
					<trkpt lat="44.039880" lon="3.369670">
						<ele>778</ele>
						<time>2019-05-18T12:40:38Z</time>
					</trkpt>
					<trkpt lat="44.040570" lon="3.369540">
						<ele>783</ele>
						<time>2019-05-18T12:40:50Z</time>
					</trkpt>
					<trkpt lat="44.041100" lon="3.369530">
						<ele>784</ele>
						<time>2019-05-18T12:40:59Z</time>
					</trkpt>
					<trkpt lat="44.041340" lon="3.369480">
						<ele>785</ele>
						<time>2019-05-18T12:41:04Z</time>
					</trkpt>
					<trkpt lat="44.041920" lon="3.369120">
						<ele>794</ele>
						<time>2019-05-18T12:41:15Z</time>
					</trkpt>
					<trkpt lat="44.042200" lon="3.369090">
						<ele>796</ele>
						<time>2019-05-18T12:41:20Z</time>
					</trkpt>
					<trkpt lat="44.042430" lon="3.369030">
						<ele>798</ele>
						<time>2019-05-18T12:41:24Z</time>
					</trkpt>
					<trkpt lat="44.042710" lon="3.368900">
						<ele>799</ele>
						<time>2019-05-18T12:41:29Z</time>
					</trkpt>
					<trkpt lat="44.042980" lon="3.368680">
						<ele>804</ele>
						<time>2019-05-18T12:41:35Z</time>
					</trkpt>
					<trkpt lat="44.043180" lon="3.368610">
						<ele>804</ele>
						<time>2019-05-18T12:41:39Z</time>
					</trkpt>
					<trkpt lat="44.044780" lon="3.368600">
						<ele>810</ele>
						<time>2019-05-18T12:42:07Z</time>
					</trkpt>
					<trkpt lat="44.045120" lon="3.368720">
						<ele>808</ele>
						<time>2019-05-18T12:42:13Z</time>
					</trkpt>
					<trkpt lat="44.045980" lon="3.369130">
						<ele>808</ele>
						<time>2019-05-18T12:42:30Z</time>
					</trkpt>
					<trkpt lat="44.046710" lon="3.369300">
						<ele>818</ele>
						<time>2019-05-18T12:42:43Z</time>
					</trkpt>
					<trkpt lat="44.046980" lon="3.369410">
						<ele>820</ele>
						<time>2019-05-18T12:42:48Z</time>
					</trkpt>
					<trkpt lat="44.047230" lon="3.369530">
						<ele>823</ele>
						<time>2019-05-18T12:42:52Z</time>
					</trkpt>
					<trkpt lat="44.047490" lon="3.369710">
						<ele>825</ele>
						<time>2019-05-18T12:42:58Z</time>
					</trkpt>
					<trkpt lat="44.047620" lon="3.369850">
						<ele>826</ele>
						<time>2019-05-18T12:43:01Z</time>
					</trkpt>
					<trkpt lat="44.047730" lon="3.370030">
						<ele>826</ele>
						<time>2019-05-18T12:43:04Z</time>
					</trkpt>
					<trkpt lat="44.048040" lon="3.371140">
						<ele>822</ele>
						<time>2019-05-18T12:43:19Z</time>
					</trkpt>
					<trkpt lat="44.048100" lon="3.371470">
						<ele>823</ele>
						<time>2019-05-18T12:43:23Z</time>
					</trkpt>
					<trkpt lat="44.048090" lon="3.371840">
						<ele>819</ele>
						<time>2019-05-18T12:43:28Z</time>
					</trkpt>
					<trkpt lat="44.048130" lon="3.372060">
						<ele>819</ele>
						<time>2019-05-18T12:43:31Z</time>
					</trkpt>
					<trkpt lat="44.048420" lon="3.373350">
						<ele>822</ele>
						<time>2019-05-18T12:43:48Z</time>
					</trkpt>
					<trkpt lat="44.048500" lon="3.373620">
						<ele>822</ele>
						<time>2019-05-18T12:43:52Z</time>
					</trkpt>
					<trkpt lat="44.049250" lon="3.375010">
						<ele>834</ele>
						<time>2019-05-18T12:44:14Z</time>
					</trkpt>
					<trkpt lat="44.049420" lon="3.375400">
						<ele>834</ele>
						<time>2019-05-18T12:44:20Z</time>
					</trkpt>
					<trkpt lat="44.049720" lon="3.376280">
						<ele>837</ele>
						<time>2019-05-18T12:44:32Z</time>
					</trkpt>
					<trkpt lat="44.049820" lon="3.376820">
						<ele>837</ele>
						<time>2019-05-18T12:44:39Z</time>
					</trkpt>
					<trkpt lat="44.049840" lon="3.377870">
						<ele>832</ele>
						<time>2019-05-18T12:44:53Z</time>
					</trkpt>
					<trkpt lat="44.049930" lon="3.378170">
						<ele>833</ele>
						<time>2019-05-18T12:44:57Z</time>
					</trkpt>
					<trkpt lat="44.050120" lon="3.378330">
						<ele>835</ele>
						<time>2019-05-18T12:45:01Z</time>
					</trkpt>
					<trkpt lat="44.050390" lon="3.378390">
						<ele>838</ele>
						<time>2019-05-18T12:45:06Z</time>
					</trkpt>
					<trkpt lat="44.050390" lon="3.378390">
						<ele>838</ele>
						<time>2019-05-18T12:45:06Z</time>
					</trkpt>
					<trkpt lat="44.051070" lon="3.378420">
						<ele>848</ele>
						<time>2019-05-18T12:45:18Z</time>
					</trkpt>
					<trkpt lat="44.051440" lon="3.378560">
						<ele>849</ele>
						<time>2019-05-18T12:45:25Z</time>
					</trkpt>
					<trkpt lat="44.051990" lon="3.378890">
						<ele>846</ele>
						<time>2019-05-18T12:45:35Z</time>
					</trkpt>
					<trkpt lat="44.052530" lon="3.379100">
						<ele>853</ele>
						<time>2019-05-18T12:45:45Z</time>
					</trkpt>
					<trkpt lat="44.052700" lon="3.379250">
						<ele>853</ele>
						<time>2019-05-18T12:45:49Z</time>
					</trkpt>
					<trkpt lat="44.053000" lon="3.379690">
						<ele>846</ele>
						<time>2019-05-18T12:45:57Z</time>
					</trkpt>
					<trkpt lat="44.053150" lon="3.379810">
						<ele>847</ele>
						<time>2019-05-18T12:46:00Z</time>
					</trkpt>
					<trkpt lat="44.053390" lon="3.379850">
						<ele>852</ele>
						<time>2019-05-18T12:46:04Z</time>
					</trkpt>
					<trkpt lat="44.053770" lon="3.379890">
						<ele>858</ele>
						<time>2019-05-18T12:46:11Z</time>
					</trkpt>
					<trkpt lat="44.054020" lon="3.379970">
						<ele>860</ele>
						<time>2019-05-18T12:46:15Z</time>
					</trkpt>
					<trkpt lat="44.054310" lon="3.380200">
						<ele>858</ele>
						<time>2019-05-18T12:46:21Z</time>
					</trkpt>
					<trkpt lat="44.054570" lon="3.380590">
						<ele>851</ele>
						<time>2019-05-18T12:46:28Z</time>
					</trkpt>
					<trkpt lat="44.054760" lon="3.380730">
						<ele>852</ele>
						<time>2019-05-18T12:46:32Z</time>
					</trkpt>
					<trkpt lat="44.055080" lon="3.380890">
						<ele>856</ele>
						<time>2019-05-18T12:46:38Z</time>
					</trkpt>
					<trkpt lat="44.055600" lon="3.381370">
						<ele>856</ele>
						<time>2019-05-18T12:46:49Z</time>
					</trkpt>
					<trkpt lat="44.055750" lon="3.381650">
						<ele>856</ele>
						<time>2019-05-18T12:46:54Z</time>
					</trkpt>
					<trkpt lat="44.055950" lon="3.382170">
						<ele>854</ele>
						<time>2019-05-18T12:47:01Z</time>
					</trkpt>
					<trkpt lat="44.056090" lon="3.382440">
						<ele>854</ele>
						<time>2019-05-18T12:47:05Z</time>
					</trkpt>
					<trkpt lat="44.056290" lon="3.382680">
						<ele>855</ele>
						<time>2019-05-18T12:47:10Z</time>
					</trkpt>
					<trkpt lat="44.056620" lon="3.383000">
						<ele>860</ele>
						<time>2019-05-18T12:47:17Z</time>
					</trkpt>
					<trkpt lat="44.057020" lon="3.383520">
						<ele>860</ele>
						<time>2019-05-18T12:47:27Z</time>
					</trkpt>
					<trkpt lat="44.057570" lon="3.383990">
						<ele>866</ele>
						<time>2019-05-18T12:47:39Z</time>
					</trkpt>
					<trkpt lat="44.057850" lon="3.384170">
						<ele>864</ele>
						<time>2019-05-18T12:47:44Z</time>
					</trkpt>
					<trkpt lat="44.058050" lon="3.384370">
						<ele>863</ele>
						<time>2019-05-18T12:47:48Z</time>
					</trkpt>
					<trkpt lat="44.058650" lon="3.385390">
						<ele>861</ele>
						<time>2019-05-18T12:48:05Z</time>
					</trkpt>
					<trkpt lat="44.059030" lon="3.386130">
						<ele>860</ele>
						<time>2019-05-18T12:48:17Z</time>
					</trkpt>
					<trkpt lat="44.059730" lon="3.386900">
						<ele>852</ele>
						<time>2019-05-18T12:48:33Z</time>
					</trkpt>
					<trkpt lat="44.060040" lon="3.387020">
						<ele>847</ele>
						<time>2019-05-18T12:48:38Z</time>
					</trkpt>
					<trkpt lat="44.060230" lon="3.386980">
						<ele>844</ele>
						<time>2019-05-18T12:48:42Z</time>
					</trkpt>
					<trkpt lat="44.060410" lon="3.386900">
						<ele>841</ele>
						<time>2019-05-18T12:48:45Z</time>
					</trkpt>
					<trkpt lat="44.060550" lon="3.386900">
						<ele>838</ele>
						<time>2019-05-18T12:48:48Z</time>
					</trkpt>
					<trkpt lat="44.060610" lon="3.387010">
						<ele>837</ele>
						<time>2019-05-18T12:48:50Z</time>
					</trkpt>
					<trkpt lat="44.060590" lon="3.387180">
						<ele>837</ele>
						<time>2019-05-18T12:48:52Z</time>
					</trkpt>
					<trkpt lat="44.060400" lon="3.387600">
						<ele>840</ele>
						<time>2019-05-18T12:48:58Z</time>
					</trkpt>
					<trkpt lat="44.060190" lon="3.387960">
						<ele>841</ele>
						<time>2019-05-18T12:49:04Z</time>
					</trkpt>
					<trkpt lat="44.060010" lon="3.388520">
						<ele>843</ele>
						<time>2019-05-18T12:49:12Z</time>
					</trkpt>
					<trkpt lat="44.059940" lon="3.388870">
						<ele>844</ele>
						<time>2019-05-18T12:49:16Z</time>
					</trkpt>
					<trkpt lat="44.060010" lon="3.389120">
						<ele>842</ele>
						<time>2019-05-18T12:49:20Z</time>
					</trkpt>
					<trkpt lat="44.060140" lon="3.389240">
						<ele>840</ele>
						<time>2019-05-18T12:49:23Z</time>
					</trkpt>
					<trkpt lat="44.060240" lon="3.389460">
						<ele>840</ele>
						<time>2019-05-18T12:49:26Z</time>
					</trkpt>
					<trkpt lat="44.060280" lon="3.389760">
						<ele>844</ele>
						<time>2019-05-18T12:49:30Z</time>
					</trkpt>
					<trkpt lat="44.060270" lon="3.390020">
						<ele>847</ele>
						<time>2019-05-18T12:49:33Z</time>
					</trkpt>
					<trkpt lat="44.060340" lon="3.390120">
						<ele>849</ele>
						<time>2019-05-18T12:49:35Z</time>
					</trkpt>
					<trkpt lat="44.060430" lon="3.390130">
						<ele>849</ele>
						<time>2019-05-18T12:49:37Z</time>
					</trkpt>
					<trkpt lat="44.060670" lon="3.389910">
						<ele>842</ele>
						<time>2019-05-18T12:49:42Z</time>
					</trkpt>
					<trkpt lat="44.061180" lon="3.389610">
						<ele>834</ele>
						<time>2019-05-18T12:49:52Z</time>
					</trkpt>
					<trkpt lat="44.061650" lon="3.389440">
						<ele>829</ele>
						<time>2019-05-18T12:50:00Z</time>
					</trkpt>
					<trkpt lat="44.062050" lon="3.389370">
						<ele>826</ele>
						<time>2019-05-18T12:50:07Z</time>
					</trkpt>
					<trkpt lat="44.062750" lon="3.389360">
						<ele>825</ele>
						<time>2019-05-18T12:50:20Z</time>
					</trkpt>
					<trkpt lat="44.063440" lon="3.389120">
						<ele>821</ele>
						<time>2019-05-18T12:50:33Z</time>
					</trkpt>
					<trkpt lat="44.063900" lon="3.389130">
						<ele>817</ele>
						<time>2019-05-18T12:50:41Z</time>
					</trkpt>
					<trkpt lat="44.064240" lon="3.389250">
						<ele>815</ele>
						<time>2019-05-18T12:50:47Z</time>
					</trkpt>
					<trkpt lat="44.064470" lon="3.389500">
						<ele>810</ele>
						<time>2019-05-18T12:50:52Z</time>
					</trkpt>
					<trkpt lat="44.064550" lon="3.389770">
						<ele>810</ele>
						<time>2019-05-18T12:50:56Z</time>
					</trkpt>
					<trkpt lat="44.064540" lon="3.390300">
						<ele>810</ele>
						<time>2019-05-18T12:51:03Z</time>
					</trkpt>
					<trkpt lat="44.064440" lon="3.390600">
						<ele>811</ele>
						<time>2019-05-18T12:51:07Z</time>
					</trkpt>
					<trkpt lat="44.063970" lon="3.391070">
						<ele>820</ele>
						<time>2019-05-18T12:51:17Z</time>
					</trkpt>
					<trkpt lat="44.064010" lon="3.391300">
						<ele>818</ele>
						<time>2019-05-18T12:51:20Z</time>
					</trkpt>
					<trkpt lat="44.064330" lon="3.391760">
						<ele>809</ele>
						<time>2019-05-18T12:51:28Z</time>
					</trkpt>
					<trkpt lat="44.064450" lon="3.392040">
						<ele>806</ele>
						<time>2019-05-18T12:51:33Z</time>
					</trkpt>
					<trkpt lat="44.064430" lon="3.392270">
						<ele>806</ele>
						<time>2019-05-18T12:51:36Z</time>
					</trkpt>
					<trkpt lat="44.064220" lon="3.392620">
						<ele>811</ele>
						<time>2019-05-18T12:51:41Z</time>
					</trkpt>
					<trkpt lat="44.064180" lon="3.392730">
						<ele>813</ele>
						<time>2019-05-18T12:51:43Z</time>
					</trkpt>
					<trkpt lat="44.064200" lon="3.392880">
						<ele>814</ele>
						<time>2019-05-18T12:51:45Z</time>
					</trkpt>
					<trkpt lat="44.064280" lon="3.392940">
						<ele>813</ele>
						<time>2019-05-18T12:51:46Z</time>
					</trkpt>
					<trkpt lat="44.064620" lon="3.392930">
						<ele>809</ele>
						<time>2019-05-18T12:51:53Z</time>
					</trkpt>
					<trkpt lat="44.064870" lon="3.392950">
						<ele>807</ele>
						<time>2019-05-18T12:51:57Z</time>
					</trkpt>
					<trkpt lat="44.064990" lon="3.392940">
						<ele>805</ele>
						<time>2019-05-18T12:51:59Z</time>
					</trkpt>
					<trkpt lat="44.065380" lon="3.392520">
						<ele>801</ele>
						<time>2019-05-18T12:52:08Z</time>
					</trkpt>
					<trkpt lat="44.065700" lon="3.391730">
						<ele>794</ele>
						<time>2019-05-18T12:52:20Z</time>
					</trkpt>
					<trkpt lat="44.065940" lon="3.391000">
						<ele>787</ele>
						<time>2019-05-18T12:52:30Z</time>
					</trkpt>
					<trkpt lat="44.066180" lon="3.390130">
						<ele>782</ele>
						<time>2019-05-18T12:52:42Z</time>
					</trkpt>
					<trkpt lat="44.066410" lon="3.388920">
						<ele>778</ele>
						<time>2019-05-18T12:52:58Z</time>
					</trkpt>
					<trkpt lat="44.066420" lon="3.388560">
						<ele>777</ele>
						<time>2019-05-18T12:53:02Z</time>
					</trkpt>
					<trkpt lat="44.066310" lon="3.387520">
						<ele>767</ele>
						<time>2019-05-18T12:53:16Z</time>
					</trkpt>
					<trkpt lat="44.066190" lon="3.386910">
						<ele>761</ele>
						<time>2019-05-18T12:53:24Z</time>
					</trkpt>
					<trkpt lat="44.066040" lon="3.386430">
						<ele>752</ele>
						<time>2019-05-18T12:53:31Z</time>
					</trkpt>
					<trkpt lat="44.066080" lon="3.386100">
						<ele>749</ele>
						<time>2019-05-18T12:53:35Z</time>
					</trkpt>
					<trkpt lat="44.066230" lon="3.385930">
						<ele>750</ele>
						<time>2019-05-18T12:53:38Z</time>
					</trkpt>
					<trkpt lat="44.066600" lon="3.385780">
						<ele>751</ele>
						<time>2019-05-18T12:53:45Z</time>
					</trkpt>
					<trkpt lat="44.066970" lon="3.385740">
						<ele>750</ele>
						<time>2019-05-18T12:53:52Z</time>
					</trkpt>
					<trkpt lat="44.067790" lon="3.385760">
						<ele>746</ele>
						<time>2019-05-18T12:54:06Z</time>
					</trkpt>
					<trkpt lat="44.068400" lon="3.385890">
						<ele>744</ele>
						<time>2019-05-18T12:54:17Z</time>
					</trkpt>
					<trkpt lat="44.068730" lon="3.385890">
						<ele>741</ele>
						<time>2019-05-18T12:54:23Z</time>
					</trkpt>
					<trkpt lat="44.069080" lon="3.386010">
						<ele>740</ele>
						<time>2019-05-18T12:54:30Z</time>
					</trkpt>
					<trkpt lat="44.069360" lon="3.386190">
						<ele>739</ele>
						<time>2019-05-18T12:54:35Z</time>
					</trkpt>
					<trkpt lat="44.069870" lon="3.386610">
						<ele>737</ele>
						<time>2019-05-18T12:54:46Z</time>
					</trkpt>
					<trkpt lat="44.070890" lon="3.387570">
						<ele>728</ele>
						<time>2019-05-18T12:55:07Z</time>
					</trkpt>
					<trkpt lat="44.071720" lon="3.388570">
						<ele>715</ele>
						<time>2019-05-18T12:55:27Z</time>
					</trkpt>
					<trkpt lat="44.071890" lon="3.388840">
						<ele>711</ele>
						<time>2019-05-18T12:55:32Z</time>
					</trkpt>
					<trkpt lat="44.071950" lon="3.389060">
						<ele>710</ele>
						<time>2019-05-18T12:55:35Z</time>
					</trkpt>
					<trkpt lat="44.071940" lon="3.389240">
						<ele>708</ele>
						<time>2019-05-18T12:55:37Z</time>
					</trkpt>
					<trkpt lat="44.071800" lon="3.389500">
						<ele>705</ele>
						<time>2019-05-18T12:55:41Z</time>
					</trkpt>
					<trkpt lat="44.071660" lon="3.389580">
						<ele>706</ele>
						<time>2019-05-18T12:55:44Z</time>
					</trkpt>
					<trkpt lat="44.071230" lon="3.389660">
						<ele>711</ele>
						<time>2019-05-18T12:55:51Z</time>
					</trkpt>
					<trkpt lat="44.070710" lon="3.389620">
						<ele>721</ele>
						<time>2019-05-18T12:56:01Z</time>
					</trkpt>
					<trkpt lat="44.070510" lon="3.389690">
						<ele>725</ele>
						<time>2019-05-18T12:56:04Z</time>
					</trkpt>
					<trkpt lat="44.070450" lon="3.389830">
						<ele>725</ele>
						<time>2019-05-18T12:56:07Z</time>
					</trkpt>
					<trkpt lat="44.070490" lon="3.390310">
						<ele>722</ele>
						<time>2019-05-18T12:56:13Z</time>
					</trkpt>
					<trkpt lat="44.070610" lon="3.390510">
						<ele>718</ele>
						<time>2019-05-18T12:56:16Z</time>
					</trkpt>
					<trkpt lat="44.070800" lon="3.390700">
						<ele>710</ele>
						<time>2019-05-18T12:56:20Z</time>
					</trkpt>
					<trkpt lat="44.070920" lon="3.390860">
						<ele>706</ele>
						<time>2019-05-18T12:56:23Z</time>
					</trkpt>
					<trkpt lat="44.071430" lon="3.391710">
						<ele>696</ele>
						<time>2019-05-18T12:56:37Z</time>
					</trkpt>
					<trkpt lat="44.071630" lon="3.392000">
						<ele>690</ele>
						<time>2019-05-18T12:56:42Z</time>
					</trkpt>
					<trkpt lat="44.071710" lon="3.392160">
						<ele>688</ele>
						<time>2019-05-18T12:56:45Z</time>
					</trkpt>
					<trkpt lat="44.071730" lon="3.392240">
						<ele>688</ele>
						<time>2019-05-18T12:56:46Z</time>
					</trkpt>
					<trkpt lat="44.071720" lon="3.392440">
						<ele>690</ele>
						<time>2019-05-18T12:56:49Z</time>
					</trkpt>
					<trkpt lat="44.071740" lon="3.392510">
						<ele>689</ele>
						<time>2019-05-18T12:56:50Z</time>
					</trkpt>
					<trkpt lat="44.071770" lon="3.392540">
						<ele>687</ele>
						<time>2019-05-18T12:56:50Z</time>
					</trkpt>
					<trkpt lat="44.071810" lon="3.392550">
						<ele>684</ele>
						<time>2019-05-18T12:56:51Z</time>
					</trkpt>
					<trkpt lat="44.071840" lon="3.392520">
						<ele>683</ele>
						<time>2019-05-18T12:56:52Z</time>
					</trkpt>
					<trkpt lat="44.071860" lon="3.392430">
						<ele>682</ele>
						<time>2019-05-18T12:56:53Z</time>
					</trkpt>
					<trkpt lat="44.071840" lon="3.392300">
						<ele>682</ele>
						<time>2019-05-18T12:56:54Z</time>
					</trkpt>
					<trkpt lat="44.071800" lon="3.392130">
						<ele>683</ele>
						<time>2019-05-18T12:56:57Z</time>
					</trkpt>
					<trkpt lat="44.071540" lon="3.391530">
						<ele>689</ele>
						<time>2019-05-18T12:57:06Z</time>
					</trkpt>
					<trkpt lat="44.071420" lon="3.391060">
						<ele>689</ele>
						<time>2019-05-18T12:57:12Z</time>
					</trkpt>
					<trkpt lat="44.071350" lon="3.390720">
						<ele>691</ele>
						<time>2019-05-18T12:57:17Z</time>
					</trkpt>
					<trkpt lat="44.071350" lon="3.390560">
						<ele>693</ele>
						<time>2019-05-18T12:57:19Z</time>
					</trkpt>
					<trkpt lat="44.071390" lon="3.390510">
						<ele>692</ele>
						<time>2019-05-18T12:57:20Z</time>
					</trkpt>
					<trkpt lat="44.072070" lon="3.390280">
						<ele>677</ele>
						<time>2019-05-18T12:57:32Z</time>
					</trkpt>
					<trkpt lat="44.072700" lon="3.389970">
						<ele>668</ele>
						<time>2019-05-18T12:57:44Z</time>
					</trkpt>
					<trkpt lat="44.073300" lon="3.389840">
						<ele>654</ele>
						<time>2019-05-18T12:57:55Z</time>
					</trkpt>
					<trkpt lat="44.073670" lon="3.389610">
						<ele>647</ele>
						<time>2019-05-18T12:58:02Z</time>
					</trkpt>
					<trkpt lat="44.073870" lon="3.389400">
						<ele>646</ele>
						<time>2019-05-18T12:58:06Z</time>
					</trkpt>
					<trkpt lat="44.073950" lon="3.389250">
						<ele>647</ele>
						<time>2019-05-18T12:58:09Z</time>
					</trkpt>
					<trkpt lat="44.074020" lon="3.388950">
						<ele>645</ele>
						<time>2019-05-18T12:58:13Z</time>
					</trkpt>
					<trkpt lat="44.074050" lon="3.388910">
						<ele>643</ele>
						<time>2019-05-18T12:58:14Z</time>
					</trkpt>
					<trkpt lat="44.074080" lon="3.388960">
						<ele>643</ele>
						<time>2019-05-18T12:58:14Z</time>
					</trkpt>
					<trkpt lat="44.074110" lon="3.389050">
						<ele>642</ele>
						<time>2019-05-18T12:58:16Z</time>
					</trkpt>
					<trkpt lat="44.074090" lon="3.389170">
						<ele>644</ele>
						<time>2019-05-18T12:58:17Z</time>
					</trkpt>
					<trkpt lat="44.074040" lon="3.389340">
						<ele>641</ele>
						<time>2019-05-18T12:58:20Z</time>
					</trkpt>
					<trkpt lat="44.073840" lon="3.389680">
						<ele>639</ele>
						<time>2019-05-18T12:58:25Z</time>
					</trkpt>
					<trkpt lat="44.073590" lon="3.389960">
						<ele>641</ele>
						<time>2019-05-18T12:58:31Z</time>
					</trkpt>
					<trkpt lat="44.073350" lon="3.390170">
						<ele>642</ele>
						<time>2019-05-18T12:58:36Z</time>
					</trkpt>
					<trkpt lat="44.073080" lon="3.390350">
						<ele>644</ele>
						<time>2019-05-18T12:58:41Z</time>
					</trkpt>
					<trkpt lat="44.072660" lon="3.390650">
						<ele>647</ele>
						<time>2019-05-18T12:58:50Z</time>
					</trkpt>
					<trkpt lat="44.072340" lon="3.390940">
						<ele>652</ele>
						<time>2019-05-18T12:58:57Z</time>
					</trkpt>
					<trkpt lat="44.072300" lon="3.391020">
						<ele>653</ele>
						<time>2019-05-18T12:58:58Z</time>
					</trkpt>
					<trkpt lat="44.072310" lon="3.391090">
						<ele>653</ele>
						<time>2019-05-18T12:58:59Z</time>
					</trkpt>
					<trkpt lat="44.072350" lon="3.391200">
						<ele>651</ele>
						<time>2019-05-18T12:59:00Z</time>
					</trkpt>
					<trkpt lat="44.072510" lon="3.391360">
						<ele>643</ele>
						<time>2019-05-18T12:59:04Z</time>
					</trkpt>
					<trkpt lat="44.072610" lon="3.391490">
						<ele>638</ele>
						<time>2019-05-18T12:59:06Z</time>
					</trkpt>
					<trkpt lat="44.072820" lon="3.392190">
						<ele>630</ele>
						<time>2019-05-18T12:59:16Z</time>
					</trkpt>
					<trkpt lat="44.072860" lon="3.392420">
						<ele>629</ele>
						<time>2019-05-18T12:59:19Z</time>
					</trkpt>
					<trkpt lat="44.072870" lon="3.392540">
						<ele>628</ele>
						<time>2019-05-18T12:59:20Z</time>
					</trkpt>
					<trkpt lat="44.072820" lon="3.392700">
						<ele>628</ele>
						<time>2019-05-18T12:59:23Z</time>
					</trkpt>
					<trkpt lat="44.072740" lon="3.392880">
						<ele>629</ele>
						<time>2019-05-18T12:59:25Z</time>
					</trkpt>
					<trkpt lat="44.072490" lon="3.393170">
						<ele>629</ele>
						<time>2019-05-18T12:59:31Z</time>
					</trkpt>
					<trkpt lat="44.072480" lon="3.393230">
						<ele>629</ele>
						<time>2019-05-18T12:59:32Z</time>
					</trkpt>
					<trkpt lat="44.072490" lon="3.393270">
						<ele>627</ele>
						<time>2019-05-18T12:59:33Z</time>
					</trkpt>
					<trkpt lat="44.072530" lon="3.393290">
						<ele>626</ele>
						<time>2019-05-18T12:59:33Z</time>
					</trkpt>
					<trkpt lat="44.072580" lon="3.393270">
						<ele>625</ele>
						<time>2019-05-18T12:59:34Z</time>
					</trkpt>
					<trkpt lat="44.072780" lon="3.392970">
						<ele>626</ele>
						<time>2019-05-18T12:59:39Z</time>
					</trkpt>
					<trkpt lat="44.072960" lon="3.392770">
						<ele>623</ele>
						<time>2019-05-18T12:59:44Z</time>
					</trkpt>
					<trkpt lat="44.073080" lon="3.392590">
						<ele>619</ele>
						<time>2019-05-18T12:59:47Z</time>
					</trkpt>
					<trkpt lat="44.073140" lon="3.392320">
						<ele>616</ele>
						<time>2019-05-18T12:59:50Z</time>
					</trkpt>
					<trkpt lat="44.073200" lon="3.391710">
						<ele>610</ele>
						<time>2019-05-18T12:59:58Z</time>
					</trkpt>
					<trkpt lat="44.073200" lon="3.391550">
						<ele>612</ele>
						<time>2019-05-18T13:00:00Z</time>
					</trkpt>
					<trkpt lat="44.073120" lon="3.391310">
						<ele>619</ele>
						<time>2019-05-18T13:00:04Z</time>
					</trkpt>
					<trkpt lat="44.073130" lon="3.391190">
						<ele>620</ele>
						<time>2019-05-18T13:00:05Z</time>
					</trkpt>
					<trkpt lat="44.073180" lon="3.391130">
						<ele>619</ele>
						<time>2019-05-18T13:00:06Z</time>
					</trkpt>
					<trkpt lat="44.073500" lon="3.391040">
						<ele>610</ele>
						<time>2019-05-18T13:00:12Z</time>
					</trkpt>
					<trkpt lat="44.073710" lon="3.390940">
						<ele>605</ele>
						<time>2019-05-18T13:00:16Z</time>
					</trkpt>
					<trkpt lat="44.075000" lon="3.389960">
						<ele>590</ele>
						<time>2019-05-18T13:00:42Z</time>
					</trkpt>
					<trkpt lat="44.075270" lon="3.389850">
						<ele>586</ele>
						<time>2019-05-18T13:00:47Z</time>
					</trkpt>
					<trkpt lat="44.075590" lon="3.389780">
						<ele>580</ele>
						<time>2019-05-18T13:00:53Z</time>
					</trkpt>
					<trkpt lat="44.075870" lon="3.389600">
						<ele>575</ele>
						<time>2019-05-18T13:00:58Z</time>
					</trkpt>
					<trkpt lat="44.076070" lon="3.389420">
						<ele>573</ele>
						<time>2019-05-18T13:01:03Z</time>
					</trkpt>
					<trkpt lat="44.076970" lon="3.389080">
						<ele>564</ele>
						<time>2019-05-18T13:01:19Z</time>
					</trkpt>
					<trkpt lat="44.077240" lon="3.389020">
						<ele>565</ele>
						<time>2019-05-18T13:01:24Z</time>
					</trkpt>
					<trkpt lat="44.078400" lon="3.388630">
						<ele>573</ele>
						<time>2019-05-18T13:01:45Z</time>
					</trkpt>
					<trkpt lat="44.078530" lon="3.388690">
						<ele>578</ele>
						<time>2019-05-18T13:01:48Z</time>
					</trkpt>
					<trkpt lat="44.078530" lon="3.388690">
						<ele>578</ele>
						<time>2019-05-18T13:01:48Z</time>
					</trkpt>
					<trkpt lat="44.078400" lon="3.388630">
						<ele>573</ele>
						<time>2019-05-18T13:01:50Z</time>
					</trkpt>
					<trkpt lat="44.078430" lon="3.387580">
						<ele>572</ele>
						<time>2019-05-18T13:02:04Z</time>
					</trkpt>
					<trkpt lat="44.078410" lon="3.387090">
						<ele>570</ele>
						<time>2019-05-18T13:02:10Z</time>
					</trkpt>
					<trkpt lat="44.078480" lon="3.386650">
						<ele>571</ele>
						<time>2019-05-18T13:02:16Z</time>
					</trkpt>
					<trkpt lat="44.078630" lon="3.386130">
						<ele>574</ele>
						<time>2019-05-18T13:02:23Z</time>
					</trkpt>
					<trkpt lat="44.078650" lon="3.385700">
						<ele>572</ele>
						<time>2019-05-18T13:02:28Z</time>
					</trkpt>
					<trkpt lat="44.078640" lon="3.385160">
						<ele>568</ele>
						<time>2019-05-18T13:02:35Z</time>
					</trkpt>
					<trkpt lat="44.078720" lon="3.384970">
						<ele>569</ele>
						<time>2019-05-18T13:02:38Z</time>
					</trkpt>
					<trkpt lat="44.078850" lon="3.384760">
						<ele>571</ele>
						<time>2019-05-18T13:02:42Z</time>
					</trkpt>
					<trkpt lat="44.078880" lon="3.384580">
						<ele>571</ele>
						<time>2019-05-18T13:02:44Z</time>
					</trkpt>
					<trkpt lat="44.078860" lon="3.384410">
						<ele>571</ele>
						<time>2019-05-18T13:02:46Z</time>
					</trkpt>
					<trkpt lat="44.078790" lon="3.384120">
						<ele>569</ele>
						<time>2019-05-18T13:02:50Z</time>
					</trkpt>
					<trkpt lat="44.078810" lon="3.384000">
						<ele>570</ele>
						<time>2019-05-18T13:02:52Z</time>
					</trkpt>
					<trkpt lat="44.078920" lon="3.383660">
						<ele>575</ele>
						<time>2019-05-18T13:02:56Z</time>
					</trkpt>
					<trkpt lat="44.078920" lon="3.383250">
						<ele>579</ele>
						<time>2019-05-18T13:03:02Z</time>
					</trkpt>
					<trkpt lat="44.078950" lon="3.382340">
						<ele>587</ele>
						<time>2019-05-18T13:03:13Z</time>
					</trkpt>
					<trkpt lat="44.079060" lon="3.381560">
						<ele>594</ele>
						<time>2019-05-18T13:03:24Z</time>
					</trkpt>
					<trkpt lat="44.079040" lon="3.381150">
						<ele>593</ele>
						<time>2019-05-18T13:03:29Z</time>
					</trkpt>
					<trkpt lat="44.078980" lon="3.380560">
						<ele>587</ele>
						<time>2019-05-18T13:03:36Z</time>
					</trkpt>
					<trkpt lat="44.078980" lon="3.380390">
						<ele>584</ele>
						<time>2019-05-18T13:03:39Z</time>
					</trkpt>
					<trkpt lat="44.079020" lon="3.380270">
						<ele>582</ele>
						<time>2019-05-18T13:03:40Z</time>
					</trkpt>
					<trkpt lat="44.079130" lon="3.380140">
						<ele>578</ele>
						<time>2019-05-18T13:03:43Z</time>
					</trkpt>
					<trkpt lat="44.079760" lon="3.379520">
						<ele>593</ele>
						<time>2019-05-18T13:03:57Z</time>
					</trkpt>
					<trkpt lat="44.079870" lon="3.379370">
						<ele>595</ele>
						<time>2019-05-18T13:03:59Z</time>
					</trkpt>
					<trkpt lat="44.079900" lon="3.379220">
						<ele>593</ele>
						<time>2019-05-18T13:04:01Z</time>
					</trkpt>
					<trkpt lat="44.079910" lon="3.378940">
						<ele>594</ele>
						<time>2019-05-18T13:04:05Z</time>
					</trkpt>
					<trkpt lat="44.079880" lon="3.378590">
						<ele>596</ele>
						<time>2019-05-18T13:04:09Z</time>
					</trkpt>
					<trkpt lat="44.079460" lon="3.377070">
						<ele>591</ele>
						<time>2019-05-18T13:04:30Z</time>
					</trkpt>
					<trkpt lat="44.079300" lon="3.376830">
						<ele>588</ele>
						<time>2019-05-18T13:04:34Z</time>
					</trkpt>
					<trkpt lat="44.079210" lon="3.376480">
						<ele>595</ele>
						<time>2019-05-18T13:04:39Z</time>
					</trkpt>
					<trkpt lat="44.079030" lon="3.376340">
						<ele>594</ele>
						<time>2019-05-18T13:04:43Z</time>
					</trkpt>
					<trkpt lat="44.078210" lon="3.376080">
						<ele>580</ele>
						<time>2019-05-18T13:04:58Z</time>
					</trkpt>
					<trkpt lat="44.077900" lon="3.375960">
						<ele>573</ele>
						<time>2019-05-18T13:05:03Z</time>
					</trkpt>
					<trkpt lat="44.077790" lon="3.375880">
						<ele>571</ele>
						<time>2019-05-18T13:05:06Z</time>
					</trkpt>
					<trkpt lat="44.077700" lon="3.375730">
						<ele>571</ele>
						<time>2019-05-18T13:05:08Z</time>
					</trkpt>
					<trkpt lat="44.077640" lon="3.375580">
						<ele>571</ele>
						<time>2019-05-18T13:05:10Z</time>
					</trkpt>
					<trkpt lat="44.077610" lon="3.375360">
						<ele>574</ele>
						<time>2019-05-18T13:05:13Z</time>
					</trkpt>
					<trkpt lat="44.077630" lon="3.374870">
						<ele>582</ele>
						<time>2019-05-18T13:05:20Z</time>
					</trkpt>
					<trkpt lat="44.077620" lon="3.374570">
						<ele>582</ele>
						<time>2019-05-18T13:05:23Z</time>
					</trkpt>
					<trkpt lat="44.077590" lon="3.374290">
						<ele>581</ele>
						<time>2019-05-18T13:05:27Z</time>
					</trkpt>
					<trkpt lat="44.077520" lon="3.373900">
						<ele>580</ele>
						<time>2019-05-18T13:05:32Z</time>
					</trkpt>
					<trkpt lat="44.077420" lon="3.373530">
						<ele>583</ele>
						<time>2019-05-18T13:05:37Z</time>
					</trkpt>
					<trkpt lat="44.076880" lon="3.372180">
						<ele>573</ele>
						<time>2019-05-18T13:05:57Z</time>
					</trkpt>
					<trkpt lat="44.076870" lon="3.371930">
						<ele>573</ele>
						<time>2019-05-18T13:06:00Z</time>
					</trkpt>
					<trkpt lat="44.076910" lon="3.371180">
						<ele>577</ele>
						<time>2019-05-18T13:06:10Z</time>
					</trkpt>
					<trkpt lat="44.076890" lon="3.370970">
						<ele>576</ele>
						<time>2019-05-18T13:06:12Z</time>
					</trkpt>
					<trkpt lat="44.076830" lon="3.370800">
						<ele>573</ele>
						<time>2019-05-18T13:06:15Z</time>
					</trkpt>
					<trkpt lat="44.076720" lon="3.370630">
						<ele>569</ele>
						<time>2019-05-18T13:06:18Z</time>
					</trkpt>
					<trkpt lat="44.076580" lon="3.370060">
						<ele>571</ele>
						<time>2019-05-18T13:06:25Z</time>
					</trkpt>
					<trkpt lat="44.076470" lon="3.369820">
						<ele>574</ele>
						<time>2019-05-18T13:06:29Z</time>
					</trkpt>
					<trkpt lat="44.075880" lon="3.369120">
						<ele>558</ele>
						<time>2019-05-18T13:06:43Z</time>
					</trkpt>
					<trkpt lat="44.075770" lon="3.368970">
						<ele>558</ele>
						<time>2019-05-18T13:06:46Z</time>
					</trkpt>
					<trkpt lat="44.075640" lon="3.368720">
						<ele>560</ele>
						<time>2019-05-18T13:06:50Z</time>
					</trkpt>
					<trkpt lat="44.075410" lon="3.368020">
						<ele>561</ele>
						<time>2019-05-18T13:06:59Z</time>
					</trkpt>
					<trkpt lat="44.075410" lon="3.367680">
						<ele>562</ele>
						<time>2019-05-18T13:07:04Z</time>
					</trkpt>
					<trkpt lat="44.075440" lon="3.367100">
						<ele>561</ele>
						<time>2019-05-18T13:07:11Z</time>
					</trkpt>
					<trkpt lat="44.075440" lon="3.367100">
						<ele>561</ele>
						<time>2019-05-18T13:07:11Z</time>
					</trkpt>
					<trkpt lat="44.075460" lon="3.366580">
						<ele>559</ele>
						<time>2019-05-18T13:07:18Z</time>
					</trkpt>
					<trkpt lat="44.075590" lon="3.365800">
						<ele>561</ele>
						<time>2019-05-18T13:07:28Z</time>
					</trkpt>
					<trkpt lat="44.075590" lon="3.365620">
						<ele>561</ele>
						<time>2019-05-18T13:07:30Z</time>
					</trkpt>
					<trkpt lat="44.075540" lon="3.365320">
						<ele>559</ele>
						<time>2019-05-18T13:07:34Z</time>
					</trkpt>
					<trkpt lat="44.075540" lon="3.365170">
						<ele>559</ele>
						<time>2019-05-18T13:07:36Z</time>
					</trkpt>
					<trkpt lat="44.075480" lon="3.364680">
						<ele>556</ele>
						<time>2019-05-18T13:07:43Z</time>
					</trkpt>
					<trkpt lat="44.075480" lon="3.364540">
						<ele>556</ele>
						<time>2019-05-18T13:07:44Z</time>
					</trkpt>
					<trkpt lat="44.075750" lon="3.363190">
						<ele>549</ele>
						<time>2019-05-18T13:08:02Z</time>
					</trkpt>
					<trkpt lat="44.075850" lon="3.362520">
						<ele>541</ele>
						<time>2019-05-18T13:08:11Z</time>
					</trkpt>
					<trkpt lat="44.076110" lon="3.361800">
						<ele>551</ele>
						<time>2019-05-18T13:08:21Z</time>
					</trkpt>
					<trkpt lat="44.076290" lon="3.361110">
						<ele>557</ele>
						<time>2019-05-18T13:08:31Z</time>
					</trkpt>
					<trkpt lat="44.076400" lon="3.360530">
						<ele>560</ele>
						<time>2019-05-18T13:08:38Z</time>
					</trkpt>
					<trkpt lat="44.076350" lon="3.359200">
						<ele>556</ele>
						<time>2019-05-18T13:08:55Z</time>
					</trkpt>
					<trkpt lat="44.076370" lon="3.358670">
						<ele>554</ele>
						<time>2019-05-18T13:09:02Z</time>
					</trkpt>
					<trkpt lat="44.076370" lon="3.357680">
						<ele>548</ele>
						<time>2019-05-18T13:09:15Z</time>
					</trkpt>
					<trkpt lat="44.076490" lon="3.357220">
						<ele>546</ele>
						<time>2019-05-18T13:09:21Z</time>
					</trkpt>
					<trkpt lat="44.076580" lon="3.356990">
						<ele>543</ele>
						<time>2019-05-18T13:09:24Z</time>
					</trkpt>
					<trkpt lat="44.076920" lon="3.356290">
						<ele>542</ele>
						<time>2019-05-18T13:09:35Z</time>
					</trkpt>
					<trkpt lat="44.077010" lon="3.356040">
						<ele>540</ele>
						<time>2019-05-18T13:09:39Z</time>
					</trkpt>
					<trkpt lat="44.077050" lon="3.355870">
						<ele>537</ele>
						<time>2019-05-18T13:09:41Z</time>
					</trkpt>
					<trkpt lat="44.076990" lon="3.355710">
						<ele>537</ele>
						<time>2019-05-18T13:09:43Z</time>
					</trkpt>
					<trkpt lat="44.076790" lon="3.355360">
						<ele>541</ele>
						<time>2019-05-18T13:09:49Z</time>
					</trkpt>
					<trkpt lat="44.076800" lon="3.355230">
						<ele>543</ele>
						<time>2019-05-18T13:09:51Z</time>
					</trkpt>
					<trkpt lat="44.076870" lon="3.355110">
						<ele>543</ele>
						<time>2019-05-18T13:09:53Z</time>
					</trkpt>
					<trkpt lat="44.077040" lon="3.354930">
						<ele>542</ele>
						<time>2019-05-18T13:09:57Z</time>
					</trkpt>
					<trkpt lat="44.077190" lon="3.354620">
						<ele>541</ele>
						<time>2019-05-18T13:10:01Z</time>
					</trkpt>
					<trkpt lat="44.077200" lon="3.354160">
						<ele>544</ele>
						<time>2019-05-18T13:10:07Z</time>
					</trkpt>
					<trkpt lat="44.077180" lon="3.353360">
						<ele>548</ele>
						<time>2019-05-18T13:10:18Z</time>
					</trkpt>
					<trkpt lat="44.077120" lon="3.352810">
						<ele>546</ele>
						<time>2019-05-18T13:10:25Z</time>
					</trkpt>
					<trkpt lat="44.077000" lon="3.352500">
						<ele>547</ele>
						<time>2019-05-18T13:10:29Z</time>
					</trkpt>
					<trkpt lat="44.076800" lon="3.352090">
						<ele>547</ele>
						<time>2019-05-18T13:10:35Z</time>
					</trkpt>
					<trkpt lat="44.076220" lon="3.351260">
						<ele>554</ele>
						<time>2019-05-18T13:10:50Z</time>
					</trkpt>
					<trkpt lat="44.075910" lon="3.350790">
						<ele>557</ele>
						<time>2019-05-18T13:10:58Z</time>
					</trkpt>
					<trkpt lat="44.075720" lon="3.350340">
						<ele>554</ele>
						<time>2019-05-18T13:11:05Z</time>
					</trkpt>
					<trkpt lat="44.075370" lon="3.348960">
						<ele>556</ele>
						<time>2019-05-18T13:11:24Z</time>
					</trkpt>
					<trkpt lat="44.075330" lon="3.348560">
						<ele>558</ele>
						<time>2019-05-18T13:11:29Z</time>
					</trkpt>
					<trkpt lat="44.075400" lon="3.347770">
						<ele>559</ele>
						<time>2019-05-18T13:11:39Z</time>
					</trkpt>
					<trkpt lat="44.075450" lon="3.347550">
						<ele>559</ele>
						<time>2019-05-18T13:11:42Z</time>
					</trkpt>
					<trkpt lat="44.076090" lon="3.346410">
						<ele>556</ele>
						<time>2019-05-18T13:12:01Z</time>
					</trkpt>
					<trkpt lat="44.076330" lon="3.345920">
						<ele>555</ele>
						<time>2019-05-18T13:12:08Z</time>
					</trkpt>
					<trkpt lat="44.076480" lon="3.345220">
						<ele>556</ele>
						<time>2019-05-18T13:12:17Z</time>
					</trkpt>
					<trkpt lat="44.076520" lon="3.344760">
						<ele>557</ele>
						<time>2019-05-18T13:12:23Z</time>
					</trkpt>
					<trkpt lat="44.076470" lon="3.344320">
						<ele>560</ele>
						<time>2019-05-18T13:12:29Z</time>
					</trkpt>
					<trkpt lat="44.076250" lon="3.343010">
						<ele>564</ele>
						<time>2019-05-18T13:12:46Z</time>
					</trkpt>
					<trkpt lat="44.076390" lon="3.342010">
						<ele>559</ele>
						<time>2019-05-18T13:12:59Z</time>
					</trkpt>
					<trkpt lat="44.076460" lon="3.341760">
						<ele>556</ele>
						<time>2019-05-18T13:13:03Z</time>
					</trkpt>
					<trkpt lat="44.076500" lon="3.341350">
						<ele>555</ele>
						<time>2019-05-18T13:13:08Z</time>
					</trkpt>
					<trkpt lat="44.076640" lon="3.340750">
						<ele>550</ele>
						<time>2019-05-18T13:13:16Z</time>
					</trkpt>
					<trkpt lat="44.076670" lon="3.340200">
						<ele>545</ele>
						<time>2019-05-18T13:13:23Z</time>
					</trkpt>
					<trkpt lat="44.076580" lon="3.339930">
						<ele>545</ele>
						<time>2019-05-18T13:13:27Z</time>
					</trkpt>
					<trkpt lat="44.076430" lon="3.339730">
						<ele>545</ele>
						<time>2019-05-18T13:13:31Z</time>
					</trkpt>
					<trkpt lat="44.076250" lon="3.339560">
						<ele>544</ele>
						<time>2019-05-18T13:13:35Z</time>
					</trkpt>
					<trkpt lat="44.075880" lon="3.339390">
						<ele>546</ele>
						<time>2019-05-18T13:13:41Z</time>
					</trkpt>
					<trkpt lat="44.075660" lon="3.339340">
						<ele>553</ele>
						<time>2019-05-18T13:13:45Z</time>
					</trkpt>
					<trkpt lat="44.075470" lon="3.339270">
						<ele>559</ele>
						<time>2019-05-18T13:13:49Z</time>
					</trkpt>
					<trkpt lat="44.075220" lon="3.338890">
						<ele>559</ele>
						<time>2019-05-18T13:13:56Z</time>
					</trkpt>
					<trkpt lat="44.075020" lon="3.338520">
						<ele>558</ele>
						<time>2019-05-18T13:14:01Z</time>
					</trkpt>
					<trkpt lat="44.074930" lon="3.338180">
						<ele>558</ele>
						<time>2019-05-18T13:14:06Z</time>
					</trkpt>
					<trkpt lat="44.074920" lon="3.337430">
						<ele>559</ele>
						<time>2019-05-18T13:14:16Z</time>
					</trkpt>
					<trkpt lat="44.074960" lon="3.337110">
						<ele>558</ele>
						<time>2019-05-18T13:14:20Z</time>
					</trkpt>
					<trkpt lat="44.075180" lon="3.336400">
						<ele>550</ele>
						<time>2019-05-18T13:14:30Z</time>
					</trkpt>
					<trkpt lat="44.075370" lon="3.335910">
						<ele>542</ele>
						<time>2019-05-18T13:14:37Z</time>
					</trkpt>
					<trkpt lat="44.075430" lon="3.335550">
						<ele>537</ele>
						<time>2019-05-18T13:14:42Z</time>
					</trkpt>
					<trkpt lat="44.075430" lon="3.335220">
						<ele>533</ele>
						<time>2019-05-18T13:14:46Z</time>
					</trkpt>
					<trkpt lat="44.075320" lon="3.335010">
						<ele>534</ele>
						<time>2019-05-18T13:14:49Z</time>
					</trkpt>
					<trkpt lat="44.075220" lon="3.334920">
						<ele>534</ele>
						<time>2019-05-18T13:14:51Z</time>
					</trkpt>
					<trkpt lat="44.075060" lon="3.334890">
						<ele>538</ele>
						<time>2019-05-18T13:14:54Z</time>
					</trkpt>
					<trkpt lat="44.074450" lon="3.335060">
						<ele>546</ele>
						<time>2019-05-18T13:15:05Z</time>
					</trkpt>
					<trkpt lat="44.073920" lon="3.334970">
						<ele>553</ele>
						<time>2019-05-18T13:15:15Z</time>
					</trkpt>
					<trkpt lat="44.073770" lon="3.334850">
						<ele>554</ele>
						<time>2019-05-18T13:15:18Z</time>
					</trkpt>
					<trkpt lat="44.073630" lon="3.334600">
						<ele>550</ele>
						<time>2019-05-18T13:15:22Z</time>
					</trkpt>
					<trkpt lat="44.073280" lon="3.333850">
						<ele>541</ele>
						<time>2019-05-18T13:15:33Z</time>
					</trkpt>
					<trkpt lat="44.073170" lon="3.333650">
						<ele>540</ele>
						<time>2019-05-18T13:15:36Z</time>
					</trkpt>
					<trkpt lat="44.073040" lon="3.333490">
						<ele>540</ele>
						<time>2019-05-18T13:15:39Z</time>
					</trkpt>
					<trkpt lat="44.072960" lon="3.333430">
						<ele>541</ele>
						<time>2019-05-18T13:15:41Z</time>
					</trkpt>
					<trkpt lat="44.072860" lon="3.333390">
						<ele>544</ele>
						<time>2019-05-18T13:15:43Z</time>
					</trkpt>
					<trkpt lat="44.072640" lon="3.333370">
						<ele>550</ele>
						<time>2019-05-18T13:15:47Z</time>
					</trkpt>
					<trkpt lat="44.072610" lon="3.333320">
						<ele>550</ele>
						<time>2019-05-18T13:15:48Z</time>
					</trkpt>
					<trkpt lat="44.072550" lon="3.332970">
						<ele>554</ele>
						<time>2019-05-18T13:15:52Z</time>
					</trkpt>
					<trkpt lat="44.072590" lon="3.332860">
						<ele>553</ele>
						<time>2019-05-18T13:15:54Z</time>
					</trkpt>
					<trkpt lat="44.072770" lon="3.332670">
						<ele>548</ele>
						<time>2019-05-18T13:15:58Z</time>
					</trkpt>
					<trkpt lat="44.072920" lon="3.332250">
						<ele>551</ele>
						<time>2019-05-18T13:16:04Z</time>
					</trkpt>
					<trkpt lat="44.073000" lon="3.332130">
						<ele>551</ele>
						<time>2019-05-18T13:16:06Z</time>
					</trkpt>
					<trkpt lat="44.073090" lon="3.332110">
						<ele>548</ele>
						<time>2019-05-18T13:16:08Z</time>
					</trkpt>
					<trkpt lat="44.073220" lon="3.332140">
						<ele>543</ele>
						<time>2019-05-18T13:16:10Z</time>
					</trkpt>
					<trkpt lat="44.073310" lon="3.332190">
						<ele>539</ele>
						<time>2019-05-18T13:16:12Z</time>
					</trkpt>
					<trkpt lat="44.073430" lon="3.332200">
						<ele>535</ele>
						<time>2019-05-18T13:16:14Z</time>
					</trkpt>
					<trkpt lat="44.073500" lon="3.332130">
						<ele>535</ele>
						<time>2019-05-18T13:16:15Z</time>
					</trkpt>
					<trkpt lat="44.073650" lon="3.331700">
						<ele>539</ele>
						<time>2019-05-18T13:16:21Z</time>
					</trkpt>
					<trkpt lat="44.073820" lon="3.331290">
						<ele>538</ele>
						<time>2019-05-18T13:16:28Z</time>
					</trkpt>
					<trkpt lat="44.073910" lon="3.330990">
						<ele>539</ele>
						<time>2019-05-18T13:16:32Z</time>
					</trkpt>
					<trkpt lat="44.073920" lon="3.330860">
						<ele>540</ele>
						<time>2019-05-18T13:16:33Z</time>
					</trkpt>
					<trkpt lat="44.073890" lon="3.330740">
						<ele>540</ele>
						<time>2019-05-18T13:16:35Z</time>
					</trkpt>
					<trkpt lat="44.073820" lon="3.330600">
						<ele>540</ele>
						<time>2019-05-18T13:16:37Z</time>
					</trkpt>
					<trkpt lat="44.073600" lon="3.330330">
						<ele>544</ele>
						<time>2019-05-18T13:16:42Z</time>
					</trkpt>
					<trkpt lat="44.073490" lon="3.330160">
						<ele>545</ele>
						<time>2019-05-18T13:16:45Z</time>
					</trkpt>
					<trkpt lat="44.073300" lon="3.330000">
						<ele>549</ele>
						<time>2019-05-18T13:16:49Z</time>
					</trkpt>
					<trkpt lat="44.073210" lon="3.329770">
						<ele>548</ele>
						<time>2019-05-18T13:16:53Z</time>
					</trkpt>
					<trkpt lat="44.073120" lon="3.329580">
						<ele>547</ele>
						<time>2019-05-18T13:16:56Z</time>
					</trkpt>
					<trkpt lat="44.072730" lon="3.329070">
						<ele>555</ele>
						<time>2019-05-18T13:17:05Z</time>
					</trkpt>
					<trkpt lat="44.072580" lon="3.328780">
						<ele>558</ele>
						<time>2019-05-18T13:17:10Z</time>
					</trkpt>
					<trkpt lat="44.072500" lon="3.328560">
						<ele>559</ele>
						<time>2019-05-18T13:17:13Z</time>
					</trkpt>
					<trkpt lat="44.072470" lon="3.328230">
						<ele>557</ele>
						<time>2019-05-18T13:17:17Z</time>
					</trkpt>
					<trkpt lat="44.072420" lon="3.328020">
						<ele>557</ele>
						<time>2019-05-18T13:17:20Z</time>
					</trkpt>
					<trkpt lat="44.072240" lon="3.327710">
						<ele>565</ele>
						<time>2019-05-18T13:17:25Z</time>
					</trkpt>
					<trkpt lat="44.072210" lon="3.327580">
						<ele>565</ele>
						<time>2019-05-18T13:17:27Z</time>
					</trkpt>
					<trkpt lat="44.072230" lon="3.327490">
						<ele>564</ele>
						<time>2019-05-18T13:17:28Z</time>
					</trkpt>
					<trkpt lat="44.072410" lon="3.327070">
						<ele>553</ele>
						<time>2019-05-18T13:17:34Z</time>
					</trkpt>
					<trkpt lat="44.072430" lon="3.326880">
						<ele>551</ele>
						<time>2019-05-18T13:17:37Z</time>
					</trkpt>
					<trkpt lat="44.072400" lon="3.326650">
						<ele>553</ele>
						<time>2019-05-18T13:17:40Z</time>
					</trkpt>
					<trkpt lat="44.072300" lon="3.326320">
						<ele>553</ele>
						<time>2019-05-18T13:17:44Z</time>
					</trkpt>
					<trkpt lat="44.071950" lon="3.325600">
						<ele>559</ele>
						<time>2019-05-18T13:17:55Z</time>
					</trkpt>
					<trkpt lat="44.071900" lon="3.325440">
						<ele>560</ele>
						<time>2019-05-18T13:17:57Z</time>
					</trkpt>
					<trkpt lat="44.071830" lon="3.324360">
						<ele>557</ele>
						<time>2019-05-18T13:18:11Z</time>
					</trkpt>
					<trkpt lat="44.071830" lon="3.324360">
						<ele>557</ele>
						<time>2019-05-18T13:18:11Z</time>
					</trkpt>
					<trkpt lat="44.071790" lon="3.323870">
						<ele>560</ele>
						<time>2019-05-18T13:18:18Z</time>
					</trkpt>
					<trkpt lat="44.071800" lon="3.323690">
						<ele>561</ele>
						<time>2019-05-18T13:18:20Z</time>
					</trkpt>
					<trkpt lat="44.072020" lon="3.322530">
						<ele>553</ele>
						<time>2019-05-18T13:18:35Z</time>
					</trkpt>
					<trkpt lat="44.072020" lon="3.322370">
						<ele>552</ele>
						<time>2019-05-18T13:18:37Z</time>
					</trkpt>
					<trkpt lat="44.072000" lon="3.322220">
						<ele>552</ele>
						<time>2019-05-18T13:18:39Z</time>
					</trkpt>
					<trkpt lat="44.071930" lon="3.322060">
						<ele>554</ele>
						<time>2019-05-18T13:18:42Z</time>
					</trkpt>
					<trkpt lat="44.071480" lon="3.321260">
						<ele>555</ele>
						<time>2019-05-18T13:18:55Z</time>
					</trkpt>
					<trkpt lat="44.071330" lon="3.321070">
						<ele>554</ele>
						<time>2019-05-18T13:18:58Z</time>
					</trkpt>
					<trkpt lat="44.071210" lon="3.320990">
						<ele>555</ele>
						<time>2019-05-18T13:19:01Z</time>
					</trkpt>
					<trkpt lat="44.070760" lon="3.320930">
						<ele>562</ele>
						<time>2019-05-18T13:19:09Z</time>
					</trkpt>
					<trkpt lat="44.070100" lon="3.320320">
						<ele>558</ele>
						<time>2019-05-18T13:19:23Z</time>
					</trkpt>
					<trkpt lat="44.069310" lon="3.319730">
						<ele>563</ele>
						<time>2019-05-18T13:19:39Z</time>
					</trkpt>
					<trkpt lat="44.069170" lon="3.319580">
						<ele>562</ele>
						<time>2019-05-18T13:19:42Z</time>
					</trkpt>
					<trkpt lat="44.069060" lon="3.319410">
						<ele>561</ele>
						<time>2019-05-18T13:19:45Z</time>
					</trkpt>
					<trkpt lat="44.068510" lon="3.318060">
						<ele>559</ele>
						<time>2019-05-18T13:20:05Z</time>
					</trkpt>
					<trkpt lat="44.068400" lon="3.317820">
						<ele>559</ele>
						<time>2019-05-18T13:20:08Z</time>
					</trkpt>
					<trkpt lat="44.067930" lon="3.317200">
						<ele>558</ele>
						<time>2019-05-18T13:20:20Z</time>
					</trkpt>
					<trkpt lat="44.067700" lon="3.316940">
						<ele>559</ele>
						<time>2019-05-18T13:20:25Z</time>
					</trkpt>
					<trkpt lat="44.067490" lon="3.316760">
						<ele>561</ele>
						<time>2019-05-18T13:20:29Z</time>
					</trkpt>
					<trkpt lat="44.067090" lon="3.316550">
						<ele>561</ele>
						<time>2019-05-18T13:20:37Z</time>
					</trkpt>
					<trkpt lat="44.066950" lon="3.316450">
						<ele>560</ele>
						<time>2019-05-18T13:20:40Z</time>
					</trkpt>
					<trkpt lat="44.066730" lon="3.316170">
						<ele>556</ele>
						<time>2019-05-18T13:20:45Z</time>
					</trkpt>
					<trkpt lat="44.066600" lon="3.316110">
						<ele>554</ele>
						<time>2019-05-18T13:20:48Z</time>
					</trkpt>
					<trkpt lat="44.066510" lon="3.316130">
						<ele>552</ele>
						<time>2019-05-18T13:20:49Z</time>
					</trkpt>
					<trkpt lat="44.066450" lon="3.316170">
						<ele>552</ele>
						<time>2019-05-18T13:20:50Z</time>
					</trkpt>
					<trkpt lat="44.066000" lon="3.316840">
						<ele>561</ele>
						<time>2019-05-18T13:21:02Z</time>
					</trkpt>
					<trkpt lat="44.065910" lon="3.316950">
						<ele>562</ele>
						<time>2019-05-18T13:21:04Z</time>
					</trkpt>
					<trkpt lat="44.065550" lon="3.317280">
						<ele>562</ele>
						<time>2019-05-18T13:21:12Z</time>
					</trkpt>
					<trkpt lat="44.065510" lon="3.317390">
						<ele>563</ele>
						<time>2019-05-18T13:21:14Z</time>
					</trkpt>
					<trkpt lat="44.065510" lon="3.317480">
						<ele>565</ele>
						<time>2019-05-18T13:21:15Z</time>
					</trkpt>
					<trkpt lat="44.065630" lon="3.318040">
						<ele>570</ele>
						<time>2019-05-18T13:21:22Z</time>
					</trkpt>
					<trkpt lat="44.065690" lon="3.318260">
						<ele>572</ele>
						<time>2019-05-18T13:21:25Z</time>
					</trkpt>
					<trkpt lat="44.065720" lon="3.318520">
						<ele>574</ele>
						<time>2019-05-18T13:21:29Z</time>
					</trkpt>
					<trkpt lat="44.065710" lon="3.318700">
						<ele>575</ele>
						<time>2019-05-18T13:21:31Z</time>
					</trkpt>
					<trkpt lat="44.065660" lon="3.318890">
						<ele>577</ele>
						<time>2019-05-18T13:21:33Z</time>
					</trkpt>
					<trkpt lat="44.065580" lon="3.319050">
						<ele>577</ele>
						<time>2019-05-18T13:21:36Z</time>
					</trkpt>
					<trkpt lat="44.065410" lon="3.319180">
						<ele>578</ele>
						<time>2019-05-18T13:21:39Z</time>
					</trkpt>
					<trkpt lat="44.065160" lon="3.319280">
						<ele>579</ele>
						<time>2019-05-18T13:21:44Z</time>
					</trkpt>
					<trkpt lat="44.065020" lon="3.319260">
						<ele>578</ele>
						<time>2019-05-18T13:21:47Z</time>
					</trkpt>
					<trkpt lat="44.064880" lon="3.319200">
						<ele>578</ele>
						<time>2019-05-18T13:21:49Z</time>
					</trkpt>
					<trkpt lat="44.064760" lon="3.319060">
						<ele>577</ele>
						<time>2019-05-18T13:21:52Z</time>
					</trkpt>
					<trkpt lat="44.064620" lon="3.318820">
						<ele>576</ele>
						<time>2019-05-18T13:21:56Z</time>
					</trkpt>
					<trkpt lat="44.064500" lon="3.318530">
						<ele>573</ele>
						<time>2019-05-18T13:22:00Z</time>
					</trkpt>
					<trkpt lat="44.064460" lon="3.318360">
						<ele>571</ele>
						<time>2019-05-18T13:22:02Z</time>
					</trkpt>
					<trkpt lat="44.064450" lon="3.317850">
						<ele>564</ele>
						<time>2019-05-18T13:22:09Z</time>
					</trkpt>
					<trkpt lat="44.064400" lon="3.317700">
						<ele>563</ele>
						<time>2019-05-18T13:22:11Z</time>
					</trkpt>
					<trkpt lat="44.064270" lon="3.317490">
						<ele>562</ele>
						<time>2019-05-18T13:22:15Z</time>
					</trkpt>
					<trkpt lat="44.063500" lon="3.316570">
						<ele>566</ele>
						<time>2019-05-18T13:22:33Z</time>
					</trkpt>
					<trkpt lat="44.063450" lon="3.316480">
						<ele>566</ele>
						<time>2019-05-18T13:22:34Z</time>
					</trkpt>
					<trkpt lat="44.063320" lon="3.315980">
						<ele>562</ele>
						<time>2019-05-18T13:22:41Z</time>
					</trkpt>
					<trkpt lat="44.063260" lon="3.315840">
						<ele>562</ele>
						<time>2019-05-18T13:22:43Z</time>
					</trkpt>
					<trkpt lat="44.063190" lon="3.315750">
						<ele>561</ele>
						<time>2019-05-18T13:22:45Z</time>
					</trkpt>
					<trkpt lat="44.062510" lon="3.315230">
						<ele>563</ele>
						<time>2019-05-18T13:22:58Z</time>
					</trkpt>
					<trkpt lat="44.062390" lon="3.315100">
						<ele>562</ele>
						<time>2019-05-18T13:23:01Z</time>
					</trkpt>
					<trkpt lat="44.062330" lon="3.315000">
						<ele>561</ele>
						<time>2019-05-18T13:23:03Z</time>
					</trkpt>
					<trkpt lat="44.062110" lon="3.314260">
						<ele>550</ele>
						<time>2019-05-18T13:23:13Z</time>
					</trkpt>
					<trkpt lat="44.062050" lon="3.314160">
						<ele>548</ele>
						<time>2019-05-18T13:23:15Z</time>
					</trkpt>
					<trkpt lat="44.061980" lon="3.314100">
						<ele>548</ele>
						<time>2019-05-18T13:23:16Z</time>
					</trkpt>
					<trkpt lat="44.061410" lon="3.313990">
						<ele>553</ele>
						<time>2019-05-18T13:23:26Z</time>
					</trkpt>
					<trkpt lat="44.061320" lon="3.313940">
						<ele>553</ele>
						<time>2019-05-18T13:23:28Z</time>
					</trkpt>
					<trkpt lat="44.060610" lon="3.313350">
						<ele>551</ele>
						<time>2019-05-18T13:23:43Z</time>
					</trkpt>
					<trkpt lat="44.060480" lon="3.313270">
						<ele>550</ele>
						<time>2019-05-18T13:23:45Z</time>
					</trkpt>
					<trkpt lat="44.060080" lon="3.313110">
						<ele>547</ele>
						<time>2019-05-18T13:23:53Z</time>
					</trkpt>
					<trkpt lat="44.059800" lon="3.312840">
						<ele>543</ele>
						<time>2019-05-18T13:23:59Z</time>
					</trkpt>
					<trkpt lat="44.059170" lon="3.312350">
						<ele>553</ele>
						<time>2019-05-18T13:24:12Z</time>
					</trkpt>
					<trkpt lat="44.059110" lon="3.312260">
						<ele>553</ele>
						<time>2019-05-18T13:24:13Z</time>
					</trkpt>
					<trkpt lat="44.059020" lon="3.311880">
						<ele>544</ele>
						<time>2019-05-18T13:24:18Z</time>
					</trkpt>
					<trkpt lat="44.058890" lon="3.311700">
						<ele>545</ele>
						<time>2019-05-18T13:24:22Z</time>
					</trkpt>
					<trkpt lat="44.058850" lon="3.311570">
						<ele>544</ele>
						<time>2019-05-18T13:24:24Z</time>
					</trkpt>
					<trkpt lat="44.058850" lon="3.311470">
						<ele>541</ele>
						<time>2019-05-18T13:24:25Z</time>
					</trkpt>
					<trkpt lat="44.058900" lon="3.311360">
						<ele>536</ele>
						<time>2019-05-18T13:24:26Z</time>
					</trkpt>
					<trkpt lat="44.058930" lon="3.311190">
						<ele>530</ele>
						<time>2019-05-18T13:24:29Z</time>
					</trkpt>
					<trkpt lat="44.058920" lon="3.311040">
						<ele>527</ele>
						<time>2019-05-18T13:24:31Z</time>
					</trkpt>
					<trkpt lat="44.058840" lon="3.310810">
						<ele>525</ele>
						<time>2019-05-18T13:24:34Z</time>
					</trkpt>
					<trkpt lat="44.058410" lon="3.310400">
						<ele>532</ele>
						<time>2019-05-18T13:24:43Z</time>
					</trkpt>
					<trkpt lat="44.058330" lon="3.310370">
						<ele>534</ele>
						<time>2019-05-18T13:24:45Z</time>
					</trkpt>
					<trkpt lat="44.057970" lon="3.310360">
						<ele>543</ele>
						<time>2019-05-18T13:24:51Z</time>
					</trkpt>
					<trkpt lat="44.057900" lon="3.310320">
						<ele>544</ele>
						<time>2019-05-18T13:24:52Z</time>
					</trkpt>
					<trkpt lat="44.057830" lon="3.310220">
						<ele>543</ele>
						<time>2019-05-18T13:24:54Z</time>
					</trkpt>
					<trkpt lat="44.057730" lon="3.309890">
						<ele>537</ele>
						<time>2019-05-18T13:24:59Z</time>
					</trkpt>
					<trkpt lat="44.057490" lon="3.309540">
						<ele>537</ele>
						<time>2019-05-18T13:25:05Z</time>
					</trkpt>
					<trkpt lat="44.057420" lon="3.309420">
						<ele>539</ele>
						<time>2019-05-18T13:25:07Z</time>
					</trkpt>
					<trkpt lat="44.057190" lon="3.308300">
						<ele>537</ele>
						<time>2019-05-18T13:25:22Z</time>
					</trkpt>
					<trkpt lat="44.057160" lon="3.307890">
						<ele>533</ele>
						<time>2019-05-18T13:25:27Z</time>
					</trkpt>
					<trkpt lat="44.057190" lon="3.307620">
						<ele>529</ele>
						<time>2019-05-18T13:25:31Z</time>
					</trkpt>
					<trkpt lat="44.057350" lon="3.307110">
						<ele>524</ele>
						<time>2019-05-18T13:25:38Z</time>
					</trkpt>
					<trkpt lat="44.057450" lon="3.306640">
						<ele>525</ele>
						<time>2019-05-18T13:25:44Z</time>
					</trkpt>
					<trkpt lat="44.057470" lon="3.306440">
						<ele>526</ele>
						<time>2019-05-18T13:25:47Z</time>
					</trkpt>
					<trkpt lat="44.057440" lon="3.306310">
						<ele>525</ele>
						<time>2019-05-18T13:25:48Z</time>
					</trkpt>
					<trkpt lat="44.057390" lon="3.306210">
						<ele>524</ele>
						<time>2019-05-18T13:25:50Z</time>
					</trkpt>
					<trkpt lat="44.057320" lon="3.306170">
						<ele>522</ele>
						<time>2019-05-18T13:25:51Z</time>
					</trkpt>
					<trkpt lat="44.057270" lon="3.306170">
						<ele>520</ele>
						<time>2019-05-18T13:25:52Z</time>
					</trkpt>
					<trkpt lat="44.057190" lon="3.306190">
						<ele>519</ele>
						<time>2019-05-18T13:25:54Z</time>
					</trkpt>
					<trkpt lat="44.057050" lon="3.306290">
						<ele>516</ele>
						<time>2019-05-18T13:25:56Z</time>
					</trkpt>
					<trkpt lat="44.056890" lon="3.306470">
						<ele>516</ele>
						<time>2019-05-18T13:26:00Z</time>
					</trkpt>
					<trkpt lat="44.056600" lon="3.306890">
						<ele>522</ele>
						<time>2019-05-18T13:26:07Z</time>
					</trkpt>
					<trkpt lat="44.056090" lon="3.307410">
						<ele>519</ele>
						<time>2019-05-18T13:26:19Z</time>
					</trkpt>
					<trkpt lat="44.055680" lon="3.307880">
						<ele>523</ele>
						<time>2019-05-18T13:26:28Z</time>
					</trkpt>
					<trkpt lat="44.055510" lon="3.308000">
						<ele>524</ele>
						<time>2019-05-18T13:26:32Z</time>
					</trkpt>
					<trkpt lat="44.055170" lon="3.308140">
						<ele>519</ele>
						<time>2019-05-18T13:26:38Z</time>
					</trkpt>
					<trkpt lat="44.054710" lon="3.308600">
						<ele>529</ele>
						<time>2019-05-18T13:26:48Z</time>
					</trkpt>
					<trkpt lat="44.054630" lon="3.308640">
						<ele>530</ele>
						<time>2019-05-18T13:26:49Z</time>
					</trkpt>
					<trkpt lat="44.054450" lon="3.308510">
						<ele>531</ele>
						<time>2019-05-18T13:26:53Z</time>
					</trkpt>
					<trkpt lat="44.054390" lon="3.308440">
						<ele>531</ele>
						<time>2019-05-18T13:26:54Z</time>
					</trkpt>
					<trkpt lat="44.054390" lon="3.308290">
						<ele>531</ele>
						<time>2019-05-18T13:26:56Z</time>
					</trkpt>
					<trkpt lat="44.054430" lon="3.308210">
						<ele>531</ele>
						<time>2019-05-18T13:26:58Z</time>
					</trkpt>
					<trkpt lat="44.054600" lon="3.308040">
						<ele>527</ele>
						<time>2019-05-18T13:27:01Z</time>
					</trkpt>
					<trkpt lat="44.054680" lon="3.307920">
						<ele>525</ele>
						<time>2019-05-18T13:27:03Z</time>
					</trkpt>
					<trkpt lat="44.054840" lon="3.307630">
						<ele>517</ele>
						<time>2019-05-18T13:27:08Z</time>
					</trkpt>
					<trkpt lat="44.055010" lon="3.307380">
						<ele>510</ele>
						<time>2019-05-18T13:27:12Z</time>
					</trkpt>
					<trkpt lat="44.055290" lon="3.307020">
						<ele>512</ele>
						<time>2019-05-18T13:27:19Z</time>
					</trkpt>
					<trkpt lat="44.055450" lon="3.306700">
						<ele>508</ele>
						<time>2019-05-18T13:27:24Z</time>
					</trkpt>
					<trkpt lat="44.055610" lon="3.306310">
						<ele>503</ele>
						<time>2019-05-18T13:27:30Z</time>
					</trkpt>
					<trkpt lat="44.055900" lon="3.305750">
						<ele>495</ele>
						<time>2019-05-18T13:27:39Z</time>
					</trkpt>
					<trkpt lat="44.056120" lon="3.305110">
						<ele>490</ele>
						<time>2019-05-18T13:27:48Z</time>
					</trkpt>
					<trkpt lat="44.056200" lon="3.304740">
						<ele>483</ele>
						<time>2019-05-18T13:27:53Z</time>
					</trkpt>
					<trkpt lat="44.056210" lon="3.304570">
						<ele>479</ele>
						<time>2019-05-18T13:27:55Z</time>
					</trkpt>
					<trkpt lat="44.056160" lon="3.304470">
						<ele>477</ele>
						<time>2019-05-18T13:27:57Z</time>
					</trkpt>
					<trkpt lat="44.056090" lon="3.304450">
						<ele>475</ele>
						<time>2019-05-18T13:27:58Z</time>
					</trkpt>
					<trkpt lat="44.055870" lon="3.304580">
						<ele>477</ele>
						<time>2019-05-18T13:28:02Z</time>
					</trkpt>
					<trkpt lat="44.055660" lon="3.304680">
						<ele>479</ele>
						<time>2019-05-18T13:28:06Z</time>
					</trkpt>
					<trkpt lat="44.055150" lon="3.304840">
						<ele>481</ele>
						<time>2019-05-18T13:28:15Z</time>
					</trkpt>
					<trkpt lat="44.054960" lon="3.304860">
						<ele>481</ele>
						<time>2019-05-18T13:28:19Z</time>
					</trkpt>
					<trkpt lat="44.054750" lon="3.304840">
						<ele>479</ele>
						<time>2019-05-18T13:28:22Z</time>
					</trkpt>
					<trkpt lat="44.054890" lon="3.304790">
						<ele>478</ele>
						<time>2019-05-18T13:28:25Z</time>
					</trkpt>
					<trkpt lat="44.055090" lon="3.304760">
						<ele>478</ele>
						<time>2019-05-18T13:28:29Z</time>
					</trkpt>
					<trkpt lat="44.055090" lon="3.304760">
						<ele>478</ele>
						<time>2019-05-18T13:28:29Z</time>
					</trkpt>
					<trkpt lat="44.054890" lon="3.304790">
						<ele>478</ele>
						<time>2019-05-18T13:28:32Z</time>
					</trkpt>
					<trkpt lat="44.054750" lon="3.304840">
						<ele>479</ele>
						<time>2019-05-18T13:28:35Z</time>
					</trkpt>
					<trkpt lat="44.054320" lon="3.304820">
						<ele>475</ele>
						<time>2019-05-18T13:28:42Z</time>
					</trkpt>
					<trkpt lat="44.053740" lon="3.304830">
						<ele>476</ele>
						<time>2019-05-18T13:28:53Z</time>
					</trkpt>
					<trkpt lat="44.053610" lon="3.304760">
						<ele>475</ele>
						<time>2019-05-18T13:28:55Z</time>
					</trkpt>
					<trkpt lat="44.053570" lon="3.304680">
						<ele>473</ele>
						<time>2019-05-18T13:28:56Z</time>
					</trkpt>
					<trkpt lat="44.053570" lon="3.304560">
						<ele>469</ele>
						<time>2019-05-18T13:28:58Z</time>
					</trkpt>
					<trkpt lat="44.053830" lon="3.303540">
						<ele>457</ele>
						<time>2019-05-18T13:29:12Z</time>
					</trkpt>
					<trkpt lat="44.053930" lon="3.303390">
						<ele>458</ele>
						<time>2019-05-18T13:29:14Z</time>
					</trkpt>
					<trkpt lat="44.054480" lon="3.303030">
						<ele>462</ele>
						<time>2019-05-18T13:29:25Z</time>
					</trkpt>
					<trkpt lat="44.054680" lon="3.302820">
						<ele>464</ele>
						<time>2019-05-18T13:29:30Z</time>
					</trkpt>
					<trkpt lat="44.054740" lon="3.302720">
						<ele>465</ele>
						<time>2019-05-18T13:29:31Z</time>
					</trkpt>
					<trkpt lat="44.054830" lon="3.302380">
						<ele>470</ele>
						<time>2019-05-18T13:29:36Z</time>
					</trkpt>
					<trkpt lat="44.054750" lon="3.302380">
						<ele>470</ele>
						<time>2019-05-18T13:29:37Z</time>
					</trkpt>
					<trkpt lat="44.054560" lon="3.302350">
						<ele>471</ele>
						<time>2019-05-18T13:29:41Z</time>
					</trkpt>
					<trkpt lat="44.054380" lon="3.302270">
						<ele>472</ele>
						<time>2019-05-18T13:29:44Z</time>
					</trkpt>
					<trkpt lat="44.054150" lon="3.302050">
						<ele>475</ele>
						<time>2019-05-18T13:29:49Z</time>
					</trkpt>
					<trkpt lat="44.053850" lon="3.301670">
						<ele>476</ele>
						<time>2019-05-18T13:29:56Z</time>
					</trkpt>
					<trkpt lat="44.053850" lon="3.301670">
						<ele>476</ele>
						<time>2019-05-18T13:29:56Z</time>
					</trkpt>
					<trkpt lat="44.053680" lon="3.301460">
						<ele>482</ele>
						<time>2019-05-18T13:30:00Z</time>
					</trkpt>
					<trkpt lat="44.053510" lon="3.301330">
						<ele>487</ele>
						<time>2019-05-18T13:30:04Z</time>
					</trkpt>
					<trkpt lat="44.053170" lon="3.301140">
						<ele>493</ele>
						<time>2019-05-18T13:30:10Z</time>
					</trkpt>
					<trkpt lat="44.052850" lon="3.301030">
						<ele>492</ele>
						<time>2019-05-18T13:30:16Z</time>
					</trkpt>
					<trkpt lat="44.052390" lon="3.300980">
						<ele>487</ele>
						<time>2019-05-18T13:30:25Z</time>
					</trkpt>
					<trkpt lat="44.051960" lon="3.300990">
						<ele>486</ele>
						<time>2019-05-18T13:30:32Z</time>
					</trkpt>
					<trkpt lat="44.051650" lon="3.300970">
						<ele>486</ele>
						<time>2019-05-18T13:30:38Z</time>
					</trkpt>
					<trkpt lat="44.051260" lon="3.300870">
						<ele>486</ele>
						<time>2019-05-18T13:30:45Z</time>
					</trkpt>
					<trkpt lat="44.050710" lon="3.300660">
						<ele>486</ele>
						<time>2019-05-18T13:30:55Z</time>
					</trkpt>
					<trkpt lat="44.049980" lon="3.300430">
						<ele>485</ele>
						<time>2019-05-18T13:31:08Z</time>
					</trkpt>
					<trkpt lat="44.049520" lon="3.300180">
						<ele>486</ele>
						<time>2019-05-18T13:31:17Z</time>
					</trkpt>
					<trkpt lat="44.048950" lon="3.299750">
						<ele>489</ele>
						<time>2019-05-18T13:31:29Z</time>
					</trkpt>
					<trkpt lat="44.048610" lon="3.299410">
						<ele>490</ele>
						<time>2019-05-18T13:31:36Z</time>
					</trkpt>
					<trkpt lat="44.048350" lon="3.298990">
						<ele>493</ele>
						<time>2019-05-18T13:31:43Z</time>
					</trkpt>
					<trkpt lat="44.047620" lon="3.298370">
						<ele>486</ele>
						<time>2019-05-18T13:31:58Z</time>
					</trkpt>
					<trkpt lat="44.047360" lon="3.297760">
						<ele>490</ele>
						<time>2019-05-18T13:32:07Z</time>
					</trkpt>
					<trkpt lat="44.047280" lon="3.297480">
						<ele>492</ele>
						<time>2019-05-18T13:32:11Z</time>
					</trkpt>
					<trkpt lat="44.047270" lon="3.297380">
						<ele>494</ele>
						<time>2019-05-18T13:32:12Z</time>
					</trkpt>
					<trkpt lat="44.047290" lon="3.297140">
						<ele>499</ele>
						<time>2019-05-18T13:32:16Z</time>
					</trkpt>
					<trkpt lat="44.047370" lon="3.296690">
						<ele>511</ele>
						<time>2019-05-18T13:32:22Z</time>
					</trkpt>
					<trkpt lat="44.047330" lon="3.296460">
						<ele>517</ele>
						<time>2019-05-18T13:32:25Z</time>
					</trkpt>
					<trkpt lat="44.047220" lon="3.296300">
						<ele>519</ele>
						<time>2019-05-18T13:32:27Z</time>
					</trkpt>
					<trkpt lat="44.047160" lon="3.296270">
						<ele>518</ele>
						<time>2019-05-18T13:32:29Z</time>
					</trkpt>
					<trkpt lat="44.047090" lon="3.296270">
						<ele>517</ele>
						<time>2019-05-18T13:32:30Z</time>
					</trkpt>
					<trkpt lat="44.047000" lon="3.296290">
						<ele>514</ele>
						<time>2019-05-18T13:32:31Z</time>
					</trkpt>
					<trkpt lat="44.046810" lon="3.296380">
						<ele>506</ele>
						<time>2019-05-18T13:32:35Z</time>
					</trkpt>
					<trkpt lat="44.046700" lon="3.296400">
						<ele>502</ele>
						<time>2019-05-18T13:32:37Z</time>
					</trkpt>
					<trkpt lat="44.046560" lon="3.296380">
						<ele>499</ele>
						<time>2019-05-18T13:32:39Z</time>
					</trkpt>
					<trkpt lat="44.046420" lon="3.296330">
						<ele>498</ele>
						<time>2019-05-18T13:32:42Z</time>
					</trkpt>
					<trkpt lat="44.046130" lon="3.296110">
						<ele>501</ele>
						<time>2019-05-18T13:32:48Z</time>
					</trkpt>
					<trkpt lat="44.045900" lon="3.295970">
						<ele>502</ele>
						<time>2019-05-18T13:32:52Z</time>
					</trkpt>
					<trkpt lat="44.045140" lon="3.295660">
						<ele>507</ele>
						<time>2019-05-18T13:33:06Z</time>
					</trkpt>
					<trkpt lat="44.043770" lon="3.295120">
						<ele>506</ele>
						<time>2019-05-18T13:33:32Z</time>
					</trkpt>
					<trkpt lat="44.043300" lon="3.294840">
						<ele>507</ele>
						<time>2019-05-18T13:33:41Z</time>
					</trkpt>
					<trkpt lat="44.043130" lon="3.294770">
						<ele>509</ele>
						<time>2019-05-18T13:33:44Z</time>
					</trkpt>
					<trkpt lat="44.042820" lon="3.294730">
						<ele>508</ele>
						<time>2019-05-18T13:33:50Z</time>
					</trkpt>
					<trkpt lat="44.042520" lon="3.294640">
						<ele>509</ele>
						<time>2019-05-18T13:33:55Z</time>
					</trkpt>
					<trkpt lat="44.042170" lon="3.294450">
						<ele>510</ele>
						<time>2019-05-18T13:34:02Z</time>
					</trkpt>
					<trkpt lat="44.041790" lon="3.294210">
						<ele>509</ele>
						<time>2019-05-18T13:34:09Z</time>
					</trkpt>
					<trkpt lat="44.041530" lon="3.293990">
						<ele>509</ele>
						<time>2019-05-18T13:34:15Z</time>
					</trkpt>
					<trkpt lat="44.041430" lon="3.293770">
						<ele>512</ele>
						<time>2019-05-18T13:34:18Z</time>
					</trkpt>
					<trkpt lat="44.041200" lon="3.293520">
						<ele>512</ele>
						<time>2019-05-18T13:34:23Z</time>
					</trkpt>
					<trkpt lat="44.040340" lon="3.292890">
						<ele>518</ele>
						<time>2019-05-18T13:34:40Z</time>
					</trkpt>
					<trkpt lat="44.039680" lon="3.292440">
						<ele>517</ele>
						<time>2019-05-18T13:34:53Z</time>
					</trkpt>
					<trkpt lat="44.039190" lon="3.292050">
						<ele>514</ele>
						<time>2019-05-18T13:35:03Z</time>
					</trkpt>
					<trkpt lat="44.039050" lon="3.291880">
						<ele>514</ele>
						<time>2019-05-18T13:35:07Z</time>
					</trkpt>
					<trkpt lat="44.038970" lon="3.291680">
						<ele>515</ele>
						<time>2019-05-18T13:35:10Z</time>
					</trkpt>
					<trkpt lat="44.038860" lon="3.290630">
						<ele>523</ele>
						<time>2019-05-18T13:35:23Z</time>
					</trkpt>
					<trkpt lat="44.038770" lon="3.290240">
						<ele>525</ele>
						<time>2019-05-18T13:35:29Z</time>
					</trkpt>
					<trkpt lat="44.038630" lon="3.290000">
						<ele>525</ele>
						<time>2019-05-18T13:35:32Z</time>
					</trkpt>
					<trkpt lat="44.038450" lon="3.289780">
						<ele>526</ele>
						<time>2019-05-18T13:35:37Z</time>
					</trkpt>
					<trkpt lat="44.038330" lon="3.289740">
						<ele>525</ele>
						<time>2019-05-18T13:35:39Z</time>
					</trkpt>
					<trkpt lat="44.038180" lon="3.289780">
						<ele>525</ele>
						<time>2019-05-18T13:35:42Z</time>
					</trkpt>
					<trkpt lat="44.038050" lon="3.289890">
						<ele>524</ele>
						<time>2019-05-18T13:35:44Z</time>
					</trkpt>
					<trkpt lat="44.037930" lon="3.290130">
						<ele>521</ele>
						<time>2019-05-18T13:35:48Z</time>
					</trkpt>
					<trkpt lat="44.037760" lon="3.290700">
						<ele>516</ele>
						<time>2019-05-18T13:35:56Z</time>
					</trkpt>
					<trkpt lat="44.037660" lon="3.290890">
						<ele>515</ele>
						<time>2019-05-18T13:35:59Z</time>
					</trkpt>
					<trkpt lat="44.037560" lon="3.290970">
						<ele>515</ele>
						<time>2019-05-18T13:36:01Z</time>
					</trkpt>
					<trkpt lat="44.037440" lon="3.291010">
						<ele>514</ele>
						<time>2019-05-18T13:36:03Z</time>
					</trkpt>
					<trkpt lat="44.037300" lon="3.291000">
						<ele>512</ele>
						<time>2019-05-18T13:36:06Z</time>
					</trkpt>
					<trkpt lat="44.037200" lon="3.290910">
						<ele>512</ele>
						<time>2019-05-18T13:36:08Z</time>
					</trkpt>
					<trkpt lat="44.036790" lon="3.290190">
						<ele>515</ele>
						<time>2019-05-18T13:36:20Z</time>
					</trkpt>
					<trkpt lat="44.036540" lon="3.289920">
						<ele>516</ele>
						<time>2019-05-18T13:36:25Z</time>
					</trkpt>
					<trkpt lat="44.035880" lon="3.289510">
						<ele>516</ele>
						<time>2019-05-18T13:36:38Z</time>
					</trkpt>
					<trkpt lat="44.035550" lon="3.289350">
						<ele>516</ele>
						<time>2019-05-18T13:36:44Z</time>
					</trkpt>
					<trkpt lat="44.035350" lon="3.289310">
						<ele>516</ele>
						<time>2019-05-18T13:36:48Z</time>
					</trkpt>
					<trkpt lat="44.034810" lon="3.289280">
						<ele>513</ele>
						<time>2019-05-18T13:36:58Z</time>
					</trkpt>
					<trkpt lat="44.034460" lon="3.289230">
						<ele>509</ele>
						<time>2019-05-18T13:37:04Z</time>
					</trkpt>
					<trkpt lat="44.034170" lon="3.289120">
						<ele>508</ele>
						<time>2019-05-18T13:37:09Z</time>
					</trkpt>
					<trkpt lat="44.033990" lon="3.288970">
						<ele>508</ele>
						<time>2019-05-18T13:37:13Z</time>
					</trkpt>
					<trkpt lat="44.033810" lon="3.288790">
						<ele>508</ele>
						<time>2019-05-18T13:37:17Z</time>
					</trkpt>
					<trkpt lat="44.033680" lon="3.288570">
						<ele>509</ele>
						<time>2019-05-18T13:37:20Z</time>
					</trkpt>
					<trkpt lat="44.033560" lon="3.288320">
						<ele>511</ele>
						<time>2019-05-18T13:37:24Z</time>
					</trkpt>
					<trkpt lat="44.033310" lon="3.288020">
						<ele>511</ele>
						<time>2019-05-18T13:37:30Z</time>
					</trkpt>
					<trkpt lat="44.033050" lon="3.287780">
						<ele>511</ele>
						<time>2019-05-18T13:37:36Z</time>
					</trkpt>
					<trkpt lat="44.032830" lon="3.287640">
						<ele>511</ele>
						<time>2019-05-18T13:37:40Z</time>
					</trkpt>
					<trkpt lat="44.032570" lon="3.287550">
						<ele>509</ele>
						<time>2019-05-18T13:37:45Z</time>
					</trkpt>
					<trkpt lat="44.032320" lon="3.287540">
						<ele>510</ele>
						<time>2019-05-18T13:37:49Z</time>
					</trkpt>
					<trkpt lat="44.032060" lon="3.287570">
						<ele>513</ele>
						<time>2019-05-18T13:37:54Z</time>
					</trkpt>
					<trkpt lat="44.031750" lon="3.287670">
						<ele>513</ele>
						<time>2019-05-18T13:38:00Z</time>
					</trkpt>
					<trkpt lat="44.031500" lon="3.287830">
						<ele>513</ele>
						<time>2019-05-18T13:38:04Z</time>
					</trkpt>
					<trkpt lat="44.031340" lon="3.288020">
						<ele>510</ele>
						<time>2019-05-18T13:38:08Z</time>
					</trkpt>
					<trkpt lat="44.031130" lon="3.288400">
						<ele>502</ele>
						<time>2019-05-18T13:38:14Z</time>
					</trkpt>
					<trkpt lat="44.030880" lon="3.288770">
						<ele>499</ele>
						<time>2019-05-18T13:38:21Z</time>
					</trkpt>
					<trkpt lat="44.030470" lon="3.289240">
						<ele>500</ele>
						<time>2019-05-18T13:38:30Z</time>
					</trkpt>
					<trkpt lat="44.030470" lon="3.289240">
						<ele>500</ele>
						<time>2019-05-18T13:38:30Z</time>
					</trkpt>
					<trkpt lat="44.030170" lon="3.289600">
						<ele>502</ele>
						<time>2019-05-18T13:38:37Z</time>
					</trkpt>
					<trkpt lat="44.029960" lon="3.289880">
						<ele>502</ele>
						<time>2019-05-18T13:38:43Z</time>
					</trkpt>
					<trkpt lat="44.029780" lon="3.290230">
						<ele>502</ele>
						<time>2019-05-18T13:38:48Z</time>
					</trkpt>
					<trkpt lat="44.029650" lon="3.290580">
						<ele>500</ele>
						<time>2019-05-18T13:38:53Z</time>
					</trkpt>
					<trkpt lat="44.029540" lon="3.290950">
						<ele>498</ele>
						<time>2019-05-18T13:38:58Z</time>
					</trkpt>
					<trkpt lat="44.029470" lon="3.291440">
						<ele>496</ele>
						<time>2019-05-18T13:39:05Z</time>
					</trkpt>
					<trkpt lat="44.029300" lon="3.293230">
						<ele>492</ele>
						<time>2019-05-18T13:39:28Z</time>
					</trkpt>
					<trkpt lat="44.029300" lon="3.293430">
						<ele>492</ele>
						<time>2019-05-18T13:39:30Z</time>
					</trkpt>
					<trkpt lat="44.029380" lon="3.293800">
						<ele>491</ele>
						<time>2019-05-18T13:39:35Z</time>
					</trkpt>
					<trkpt lat="44.029410" lon="3.294060">
						<ele>491</ele>
						<time>2019-05-18T13:39:39Z</time>
					</trkpt>
					<trkpt lat="44.029400" lon="3.294440">
						<ele>489</ele>
						<time>2019-05-18T13:39:43Z</time>
					</trkpt>
					<trkpt lat="44.029290" lon="3.294820">
						<ele>487</ele>
						<time>2019-05-18T13:39:49Z</time>
					</trkpt>
					<trkpt lat="44.029150" lon="3.295080">
						<ele>487</ele>
						<time>2019-05-18T13:39:53Z</time>
					</trkpt>
					<trkpt lat="44.028740" lon="3.295650">
						<ele>494</ele>
						<time>2019-05-18T13:40:03Z</time>
					</trkpt>
					<trkpt lat="44.028370" lon="3.296080">
						<ele>494</ele>
						<time>2019-05-18T13:40:12Z</time>
					</trkpt>
					<trkpt lat="44.027780" lon="3.296620">
						<ele>492</ele>
						<time>2019-05-18T13:40:24Z</time>
					</trkpt>
					<trkpt lat="44.026640" lon="3.297540">
						<ele>487</ele>
						<time>2019-05-18T13:40:48Z</time>
					</trkpt>
					<trkpt lat="44.026640" lon="3.297540">
						<ele>487</ele>
						<time>2019-05-18T13:40:48Z</time>
					</trkpt>
					<trkpt lat="44.026280" lon="3.297880">
						<ele>486</ele>
						<time>2019-05-18T13:40:55Z</time>
					</trkpt>
					<trkpt lat="44.025280" lon="3.298760">
						<ele>485</ele>
						<time>2019-05-18T13:41:17Z</time>
					</trkpt>
					<trkpt lat="44.023860" lon="3.300030">
						<ele>494</ele>
						<time>2019-05-18T13:41:47Z</time>
					</trkpt>
					<trkpt lat="44.023780" lon="3.300150">
						<ele>494</ele>
						<time>2019-05-18T13:41:49Z</time>
					</trkpt>
					<trkpt lat="44.023710" lon="3.300330">
						<ele>494</ele>
						<time>2019-05-18T13:41:51Z</time>
					</trkpt>
					<trkpt lat="44.023640" lon="3.300300">
						<ele>494</ele>
						<time>2019-05-18T13:41:53Z</time>
					</trkpt>
					<trkpt lat="44.023280" lon="3.300550">
						<ele>496</ele>
						<time>2019-05-18T13:42:00Z</time>
					</trkpt>
					<trkpt lat="44.022860" lon="3.300780">
						<ele>497</ele>
						<time>2019-05-18T13:42:08Z</time>
					</trkpt>
					<trkpt lat="44.022470" lon="3.301040">
						<ele>498</ele>
						<time>2019-05-18T13:42:15Z</time>
					</trkpt>
					<trkpt lat="44.022490" lon="3.301330">
						<ele>499</ele>
						<time>2019-05-18T13:42:19Z</time>
					</trkpt>
					<trkpt lat="44.022460" lon="3.301550">
						<ele>499</ele>
						<time>2019-05-18T13:42:22Z</time>
					</trkpt>
					</trkseg>
				</trk>
			</gpx>